<?xml version="1.0" encoding="UTF-8" standalone="no" ?>
<gpx xmlns="http://www.topografix.com/GPX/1/1" xmlns:xsi="http://www.w3.org/2001/XMLSchema-instance" xsi:schemaLocation="http://www.topografix.com/GPX/1/1 http://www.topografix.com/GPX/1/1/gpx.xsd" version="1.1" creator="VisuGPX - https://www.visugpx.com">
  <metadata>
    <name>Clisson</name>
    <desc><![CDATA[Randonnée de 13,5km départ de la Trinité, et sur les bords de la Moine.]]></desc>
  </metadata>
  <trk>
    <name><![CDATA[2014-04-16 12:14:12]]></name>
    <trkseg>
      <trkpt lat="47.08884" lon="-1.27572">
        <ele>43.4</ele>
        <time>2014-04-16T07:05:06Z</time>
      </trkpt>
      <trkpt lat="47.08886" lon="-1.27572">
        <ele>42.92</ele>
        <time>2014-04-16T07:06:26Z</time>
      </trkpt>
      <trkpt lat="47.08889" lon="-1.2757">
        <ele>35.71</ele>
        <time>2014-04-16T07:07:00Z</time>
      </trkpt>
      <trkpt lat="47.08897" lon="-1.27565">
        <ele>36.19</ele>
        <time>2014-04-16T07:07:20Z</time>
      </trkpt>
      <trkpt lat="47.089" lon="-1.2755">
        <ele>35.71</ele>
        <time>2014-04-16T07:07:36Z</time>
      </trkpt>
      <trkpt lat="47.08904" lon="-1.27537">
        <ele>35.71</ele>
        <time>2014-04-16T07:07:49Z</time>
      </trkpt>
      <trkpt lat="47.0891" lon="-1.27526">
        <ele>35.71</ele>
        <time>2014-04-16T07:07:58Z</time>
      </trkpt>
      <trkpt lat="47.08916" lon="-1.27513">
        <ele>35.71</ele>
        <time>2014-04-16T07:08:07Z</time>
      </trkpt>
      <trkpt lat="47.08923" lon="-1.275">
        <ele>35.71</ele>
        <time>2014-04-16T07:08:15Z</time>
      </trkpt>
      <trkpt lat="47.08933" lon="-1.27491">
        <ele>35.71</ele>
        <time>2014-04-16T07:08:23Z</time>
      </trkpt>
      <trkpt lat="47.08943" lon="-1.27488">
        <ele>35.71</ele>
        <time>2014-04-16T07:08:31Z</time>
      </trkpt>
      <trkpt lat="47.08953" lon="-1.27487">
        <ele>37.15</ele>
        <time>2014-04-16T07:08:38Z</time>
      </trkpt>
      <trkpt lat="47.08962" lon="-1.27488">
        <ele>37.63</ele>
        <time>2014-04-16T07:08:45Z</time>
      </trkpt>
      <trkpt lat="47.08973" lon="-1.27493">
        <ele>37.63</ele>
        <time>2014-04-16T07:08:53Z</time>
      </trkpt>
      <trkpt lat="47.08981" lon="-1.27497">
        <ele>38.59</ele>
        <time>2014-04-16T07:09:00Z</time>
      </trkpt>
      <trkpt lat="47.08991" lon="-1.27497">
        <ele>39.07</ele>
        <time>2014-04-16T07:09:08Z</time>
      </trkpt>
      <trkpt lat="47.08998" lon="-1.27487">
        <ele>39.07</ele>
        <time>2014-04-16T07:09:16Z</time>
      </trkpt>
      <trkpt lat="47.09001" lon="-1.27473">
        <ele>38.59</ele>
        <time>2014-04-16T07:09:23Z</time>
      </trkpt>
      <trkpt lat="47.09003" lon="-1.27459">
        <ele>37.15</ele>
        <time>2014-04-16T07:09:30Z</time>
      </trkpt>
      <trkpt lat="47.09004" lon="-1.27445">
        <ele>38.11</ele>
        <time>2014-04-16T07:09:37Z</time>
      </trkpt>
      <trkpt lat="47.09003" lon="-1.2743">
        <ele>38.11</ele>
        <time>2014-04-16T07:09:44Z</time>
      </trkpt>
      <trkpt lat="47.09003" lon="-1.27415">
        <ele>38.11</ele>
        <time>2014-04-16T07:09:51Z</time>
      </trkpt>
      <trkpt lat="47.09004" lon="-1.274">
        <ele>37.15</ele>
        <time>2014-04-16T07:09:58Z</time>
      </trkpt>
      <trkpt lat="47.09004" lon="-1.27386">
        <ele>38.59</ele>
        <time>2014-04-16T07:10:05Z</time>
      </trkpt>
      <trkpt lat="47.09003" lon="-1.27372">
        <ele>36.67</ele>
        <time>2014-04-16T07:10:12Z</time>
      </trkpt>
      <trkpt lat="47.09002" lon="-1.27358">
        <ele>36.67</ele>
        <time>2014-04-16T07:10:19Z</time>
      </trkpt>
      <trkpt lat="47.09002" lon="-1.27342">
        <ele>36.67</ele>
        <time>2014-04-16T07:10:26Z</time>
      </trkpt>
      <trkpt lat="47.09002" lon="-1.27326">
        <ele>36.19</ele>
        <time>2014-04-16T07:10:34Z</time>
      </trkpt>
      <trkpt lat="47.09001" lon="-1.2731">
        <ele>36.19</ele>
        <time>2014-04-16T07:10:41Z</time>
      </trkpt>
      <trkpt lat="47.09001" lon="-1.27295">
        <ele>36.19</ele>
        <time>2014-04-16T07:10:48Z</time>
      </trkpt>
      <trkpt lat="47.09" lon="-1.2728">
        <ele>36.19</ele>
        <time>2014-04-16T07:10:55Z</time>
      </trkpt>
      <trkpt lat="47.09002" lon="-1.27265">
        <ele>35.71</ele>
        <time>2014-04-16T07:11:02Z</time>
      </trkpt>
      <trkpt lat="47.09004" lon="-1.27251">
        <ele>35.71</ele>
        <time>2014-04-16T07:11:09Z</time>
      </trkpt>
      <trkpt lat="47.09008" lon="-1.27237">
        <ele>35.71</ele>
        <time>2014-04-16T07:11:16Z</time>
      </trkpt>
      <trkpt lat="47.09014" lon="-1.27223">
        <ele>35.71</ele>
        <time>2014-04-16T07:11:23Z</time>
      </trkpt>
      <trkpt lat="47.09019" lon="-1.27209">
        <ele>35.71</ele>
        <time>2014-04-16T07:11:30Z</time>
      </trkpt>
      <trkpt lat="47.09017" lon="-1.27196">
        <ele>35.71</ele>
        <time>2014-04-16T07:11:37Z</time>
      </trkpt>
      <trkpt lat="47.0901" lon="-1.27184">
        <ele>36.67</ele>
        <time>2014-04-16T07:11:45Z</time>
      </trkpt>
      <trkpt lat="47.09003" lon="-1.27175">
        <ele>35.23</ele>
        <time>2014-04-16T07:11:52Z</time>
      </trkpt>
      <trkpt lat="47.08994" lon="-1.27164">
        <ele>35.23</ele>
        <time>2014-04-16T07:12:02Z</time>
      </trkpt>
      <trkpt lat="47.08986" lon="-1.27152">
        <ele>34.26</ele>
        <time>2014-04-16T07:12:10Z</time>
      </trkpt>
      <trkpt lat="47.08978" lon="-1.27142">
        <ele>33.3</ele>
        <time>2014-04-16T07:12:18Z</time>
      </trkpt>
      <trkpt lat="47.0897" lon="-1.2713">
        <ele>32.82</ele>
        <time>2014-04-16T07:12:26Z</time>
      </trkpt>
      <trkpt lat="47.08965" lon="-1.27114">
        <ele>32.34</ele>
        <time>2014-04-16T07:12:34Z</time>
      </trkpt>
      <trkpt lat="47.08963" lon="-1.27098">
        <ele>32.34</ele>
        <time>2014-04-16T07:12:41Z</time>
      </trkpt>
      <trkpt lat="47.08962" lon="-1.27084">
        <ele>31.86</ele>
        <time>2014-04-16T07:12:48Z</time>
      </trkpt>
      <trkpt lat="47.0896" lon="-1.27068">
        <ele>31.86</ele>
        <time>2014-04-16T07:12:56Z</time>
      </trkpt>
      <trkpt lat="47.08958" lon="-1.27054">
        <ele>31.38</ele>
        <time>2014-04-16T07:13:03Z</time>
      </trkpt>
      <trkpt lat="47.08959" lon="-1.2704">
        <ele>31.38</ele>
        <time>2014-04-16T07:13:10Z</time>
      </trkpt>
      <trkpt lat="47.08961" lon="-1.27025">
        <ele>31.38</ele>
        <time>2014-04-16T07:13:18Z</time>
      </trkpt>
      <trkpt lat="47.08963" lon="-1.27009">
        <ele>31.38</ele>
        <time>2014-04-16T07:13:25Z</time>
      </trkpt>
      <trkpt lat="47.08966" lon="-1.26993">
        <ele>31.38</ele>
        <time>2014-04-16T07:13:33Z</time>
      </trkpt>
      <trkpt lat="47.08965" lon="-1.26979">
        <ele>31.38</ele>
        <time>2014-04-16T07:13:40Z</time>
      </trkpt>
      <trkpt lat="47.08958" lon="-1.26968">
        <ele>31.38</ele>
        <time>2014-04-16T07:13:47Z</time>
      </trkpt>
      <trkpt lat="47.08953" lon="-1.26956">
        <ele>30.9</ele>
        <time>2014-04-16T07:13:54Z</time>
      </trkpt>
      <trkpt lat="47.08951" lon="-1.26942">
        <ele>31.86</ele>
        <time>2014-04-16T07:14:02Z</time>
      </trkpt>
      <trkpt lat="47.08954" lon="-1.26927">
        <ele>31.86</ele>
        <time>2014-04-16T07:14:09Z</time>
      </trkpt>
      <trkpt lat="47.08958" lon="-1.26914">
        <ele>31.86</ele>
        <time>2014-04-16T07:14:17Z</time>
      </trkpt>
      <trkpt lat="47.08963" lon="-1.26902">
        <ele>31.86</ele>
        <time>2014-04-16T07:14:24Z</time>
      </trkpt>
      <trkpt lat="47.08968" lon="-1.2689">
        <ele>31.86</ele>
        <time>2014-04-16T07:14:31Z</time>
      </trkpt>
      <trkpt lat="47.08973" lon="-1.26877">
        <ele>31.86</ele>
        <time>2014-04-16T07:14:39Z</time>
      </trkpt>
      <trkpt lat="47.08979" lon="-1.26865">
        <ele>31.86</ele>
        <time>2014-04-16T07:14:47Z</time>
      </trkpt>
      <trkpt lat="47.08986" lon="-1.26855">
        <ele>31.86</ele>
        <time>2014-04-16T07:14:55Z</time>
      </trkpt>
      <trkpt lat="47.08994" lon="-1.26843">
        <ele>31.86</ele>
        <time>2014-04-16T07:15:04Z</time>
      </trkpt>
      <trkpt lat="47.09002" lon="-1.2683">
        <ele>30.42</ele>
        <time>2014-04-16T07:15:14Z</time>
      </trkpt>
      <trkpt lat="47.0901" lon="-1.26817">
        <ele>30.42</ele>
        <time>2014-04-16T07:15:23Z</time>
      </trkpt>
      <trkpt lat="47.09017" lon="-1.26803">
        <ele>29.46</ele>
        <time>2014-04-16T07:15:32Z</time>
      </trkpt>
      <trkpt lat="47.09024" lon="-1.26788">
        <ele>28.5</ele>
        <time>2014-04-16T07:15:41Z</time>
      </trkpt>
      <trkpt lat="47.09032" lon="-1.26775">
        <ele>27.53</ele>
        <time>2014-04-16T07:15:49Z</time>
      </trkpt>
      <trkpt lat="47.09038" lon="-1.26762">
        <ele>25.13</ele>
        <time>2014-04-16T07:15:58Z</time>
      </trkpt>
      <trkpt lat="47.09043" lon="-1.26746">
        <ele>23.21</ele>
        <time>2014-04-16T07:16:08Z</time>
      </trkpt>
      <trkpt lat="47.09047" lon="-1.26733">
        <ele>20.81</ele>
        <time>2014-04-16T07:16:19Z</time>
      </trkpt>
      <trkpt lat="47.09049" lon="-1.26717">
        <ele>17.44</ele>
        <time>2014-04-16T07:16:31Z</time>
      </trkpt>
      <trkpt lat="47.09052" lon="-1.26699">
        <ele>16.96</ele>
        <time>2014-04-16T07:16:39Z</time>
      </trkpt>
      <trkpt lat="47.09057" lon="-1.26683">
        <ele>16.96</ele>
        <time>2014-04-16T07:16:48Z</time>
      </trkpt>
      <trkpt lat="47.09061" lon="-1.26667">
        <ele>16.96</ele>
        <time>2014-04-16T07:16:58Z</time>
      </trkpt>
      <trkpt lat="47.09065" lon="-1.26649">
        <ele>16.48</ele>
        <time>2014-04-16T07:17:07Z</time>
      </trkpt>
      <trkpt lat="47.09068" lon="-1.26633">
        <ele>16.48</ele>
        <time>2014-04-16T07:17:15Z</time>
      </trkpt>
      <trkpt lat="47.09071" lon="-1.26618">
        <ele>16</ele>
        <time>2014-04-16T07:17:24Z</time>
      </trkpt>
      <trkpt lat="47.09076" lon="-1.266">
        <ele>15.52</ele>
        <time>2014-04-16T07:17:42Z</time>
      </trkpt>
      <trkpt lat="47.09083" lon="-1.2658">
        <ele>16.96</ele>
        <time>2014-04-16T07:18:04Z</time>
      </trkpt>
      <trkpt lat="47.09089" lon="-1.26563">
        <ele>16.48</ele>
        <time>2014-04-16T07:18:14Z</time>
      </trkpt>
      <trkpt lat="47.09092" lon="-1.26545">
        <ele>16.48</ele>
        <time>2014-04-16T07:18:24Z</time>
      </trkpt>
      <trkpt lat="47.09095" lon="-1.26528">
        <ele>16.48</ele>
        <time>2014-04-16T07:18:35Z</time>
      </trkpt>
      <trkpt lat="47.09097" lon="-1.26512">
        <ele>16.48</ele>
        <time>2014-04-16T07:18:51Z</time>
      </trkpt>
      <trkpt lat="47.09103" lon="-1.26499">
        <ele>16.96</ele>
        <time>2014-04-16T07:19:06Z</time>
      </trkpt>
      <trkpt lat="47.09111" lon="-1.26491">
        <ele>16.96</ele>
        <time>2014-04-16T07:19:15Z</time>
      </trkpt>
      <trkpt lat="47.09121" lon="-1.26475">
        <ele>16.96</ele>
        <time>2014-04-16T07:19:28Z</time>
      </trkpt>
      <trkpt lat="47.09123" lon="-1.26454">
        <ele>16.96</ele>
        <time>2014-04-16T07:19:41Z</time>
      </trkpt>
      <trkpt lat="47.09137" lon="-1.26448">
        <ele>22.25</ele>
        <time>2014-04-16T07:20:15Z</time>
      </trkpt>
      <trkpt lat="47.09142" lon="-1.2645">
        <ele>24.65</ele>
        <time>2014-04-16T07:20:30Z</time>
      </trkpt>
      <trkpt lat="47.0915" lon="-1.26427">
        <ele>26.09</ele>
        <time>2014-04-16T07:20:45Z</time>
      </trkpt>
      <trkpt lat="47.09154" lon="-1.26411">
        <ele>27.05</ele>
        <time>2014-04-16T07:20:55Z</time>
      </trkpt>
      <trkpt lat="47.09162" lon="-1.26403">
        <ele>28.5</ele>
        <time>2014-04-16T07:21:05Z</time>
      </trkpt>
      <trkpt lat="47.09171" lon="-1.26404">
        <ele>29.94</ele>
        <time>2014-04-16T07:21:13Z</time>
      </trkpt>
      <trkpt lat="47.09179" lon="-1.26411">
        <ele>30.9</ele>
        <time>2014-04-16T07:21:22Z</time>
      </trkpt>
      <trkpt lat="47.09181" lon="-1.26424">
        <ele>31.38</ele>
        <time>2014-04-16T07:21:31Z</time>
      </trkpt>
      <trkpt lat="47.09178" lon="-1.26437">
        <ele>31.38</ele>
        <time>2014-04-16T07:21:39Z</time>
      </trkpt>
      <trkpt lat="47.09183" lon="-1.26445">
        <ele>31.86</ele>
        <time>2014-04-16T07:21:47Z</time>
      </trkpt>
      <trkpt lat="47.09193" lon="-1.26447">
        <ele>31.86</ele>
        <time>2014-04-16T07:21:55Z</time>
      </trkpt>
      <trkpt lat="47.09201" lon="-1.26449">
        <ele>32.34</ele>
        <time>2014-04-16T07:22:02Z</time>
      </trkpt>
      <trkpt lat="47.0921" lon="-1.2645">
        <ele>32.82</ele>
        <time>2014-04-16T07:22:09Z</time>
      </trkpt>
      <trkpt lat="47.09219" lon="-1.26452">
        <ele>33.3</ele>
        <time>2014-04-16T07:22:16Z</time>
      </trkpt>
      <trkpt lat="47.09229" lon="-1.26454">
        <ele>33.78</ele>
        <time>2014-04-16T07:22:24Z</time>
      </trkpt>
      <trkpt lat="47.09238" lon="-1.26459">
        <ele>34.74</ele>
        <time>2014-04-16T07:22:32Z</time>
      </trkpt>
      <trkpt lat="47.09247" lon="-1.26462">
        <ele>34.74</ele>
        <time>2014-04-16T07:22:40Z</time>
      </trkpt>
      <trkpt lat="47.09252" lon="-1.26452">
        <ele>35.23</ele>
        <time>2014-04-16T07:22:50Z</time>
      </trkpt>
      <trkpt lat="47.09247" lon="-1.26441">
        <ele>35.23</ele>
        <time>2014-04-16T07:22:59Z</time>
      </trkpt>
      <trkpt lat="47.0924" lon="-1.26429">
        <ele>33.78</ele>
        <time>2014-04-16T07:23:07Z</time>
      </trkpt>
      <trkpt lat="47.09233" lon="-1.26417">
        <ele>33.3</ele>
        <time>2014-04-16T07:23:15Z</time>
      </trkpt>
      <trkpt lat="47.09228" lon="-1.26406">
        <ele>33.3</ele>
        <time>2014-04-16T07:23:23Z</time>
      </trkpt>
      <trkpt lat="47.09222" lon="-1.26393">
        <ele>33.3</ele>
        <time>2014-04-16T07:23:31Z</time>
      </trkpt>
      <trkpt lat="47.0922" lon="-1.2638">
        <ele>33.3</ele>
        <time>2014-04-16T07:23:38Z</time>
      </trkpt>
      <trkpt lat="47.09224" lon="-1.26367">
        <ele>33.3</ele>
        <time>2014-04-16T07:23:46Z</time>
      </trkpt>
      <trkpt lat="47.09229" lon="-1.26355">
        <ele>33.3</ele>
        <time>2014-04-16T07:23:53Z</time>
      </trkpt>
      <trkpt lat="47.09235" lon="-1.26345">
        <ele>33.3</ele>
        <time>2014-04-16T07:24:00Z</time>
      </trkpt>
      <trkpt lat="47.09242" lon="-1.26333">
        <ele>33.3</ele>
        <time>2014-04-16T07:24:08Z</time>
      </trkpt>
      <trkpt lat="47.0925" lon="-1.26323">
        <ele>33.3</ele>
        <time>2014-04-16T07:24:15Z</time>
      </trkpt>
      <trkpt lat="47.09257" lon="-1.26313">
        <ele>34.26</ele>
        <time>2014-04-16T07:24:22Z</time>
      </trkpt>
      <trkpt lat="47.09263" lon="-1.26304">
        <ele>34.74</ele>
        <time>2014-04-16T07:24:29Z</time>
      </trkpt>
      <trkpt lat="47.0927" lon="-1.26294">
        <ele>34.74</ele>
        <time>2014-04-16T07:24:36Z</time>
      </trkpt>
      <trkpt lat="47.09276" lon="-1.26283">
        <ele>35.23</ele>
        <time>2014-04-16T07:24:43Z</time>
      </trkpt>
      <trkpt lat="47.09282" lon="-1.26274">
        <ele>35.23</ele>
        <time>2014-04-16T07:24:50Z</time>
      </trkpt>
      <trkpt lat="47.09288" lon="-1.26264">
        <ele>35.23</ele>
        <time>2014-04-16T07:24:58Z</time>
      </trkpt>
      <trkpt lat="47.09295" lon="-1.26253">
        <ele>35.23</ele>
        <time>2014-04-16T07:25:06Z</time>
      </trkpt>
      <trkpt lat="47.09296" lon="-1.26241">
        <ele>36.19</ele>
        <time>2014-04-16T07:25:15Z</time>
      </trkpt>
      <trkpt lat="47.0929" lon="-1.26231">
        <ele>34.26</ele>
        <time>2014-04-16T07:25:23Z</time>
      </trkpt>
      <trkpt lat="47.09284" lon="-1.2622">
        <ele>34.26</ele>
        <time>2014-04-16T07:25:31Z</time>
      </trkpt>
      <trkpt lat="47.09278" lon="-1.26211">
        <ele>33.78</ele>
        <time>2014-04-16T07:25:38Z</time>
      </trkpt>
      <trkpt lat="47.09273" lon="-1.26199">
        <ele>32.34</ele>
        <time>2014-04-16T07:25:46Z</time>
      </trkpt>
      <trkpt lat="47.09273" lon="-1.26187">
        <ele>32.82</ele>
        <time>2014-04-16T07:25:54Z</time>
      </trkpt>
      <trkpt lat="47.09279" lon="-1.26172">
        <ele>32.34</ele>
        <time>2014-04-16T07:26:03Z</time>
      </trkpt>
      <trkpt lat="47.09286" lon="-1.26157">
        <ele>32.82</ele>
        <time>2014-04-16T07:26:11Z</time>
      </trkpt>
      <trkpt lat="47.09291" lon="-1.26146">
        <ele>32.34</ele>
        <time>2014-04-16T07:26:19Z</time>
      </trkpt>
      <trkpt lat="47.09297" lon="-1.26136">
        <ele>32.34</ele>
        <time>2014-04-16T07:26:26Z</time>
      </trkpt>
      <trkpt lat="47.09304" lon="-1.26125">
        <ele>33.78</ele>
        <time>2014-04-16T07:26:34Z</time>
      </trkpt>
      <trkpt lat="47.0931" lon="-1.26115">
        <ele>32.82</ele>
        <time>2014-04-16T07:26:41Z</time>
      </trkpt>
      <trkpt lat="47.09317" lon="-1.26106">
        <ele>32.82</ele>
        <time>2014-04-16T07:26:48Z</time>
      </trkpt>
      <trkpt lat="47.09323" lon="-1.26097">
        <ele>32.82</ele>
        <time>2014-04-16T07:26:56Z</time>
      </trkpt>
      <trkpt lat="47.09331" lon="-1.26086">
        <ele>31.86</ele>
        <time>2014-04-16T07:27:05Z</time>
      </trkpt>
      <trkpt lat="47.0934" lon="-1.26078">
        <ele>29.46</ele>
        <time>2014-04-16T07:27:15Z</time>
      </trkpt>
      <trkpt lat="47.09351" lon="-1.26077">
        <ele>26.57</ele>
        <time>2014-04-16T07:27:25Z</time>
      </trkpt>
      <trkpt lat="47.09361" lon="-1.26074">
        <ele>24.65</ele>
        <time>2014-04-16T07:27:34Z</time>
      </trkpt>
      <trkpt lat="47.09372" lon="-1.26066">
        <ele>21.77</ele>
        <time>2014-04-16T07:27:44Z</time>
      </trkpt>
      <trkpt lat="47.09384" lon="-1.26057">
        <ele>20.32</ele>
        <time>2014-04-16T07:27:55Z</time>
      </trkpt>
      <trkpt lat="47.09398" lon="-1.2605">
        <ele>17.92</ele>
        <time>2014-04-16T07:28:08Z</time>
      </trkpt>
      <trkpt lat="47.09408" lon="-1.26049">
        <ele>17.44</ele>
        <time>2014-04-16T07:28:18Z</time>
      </trkpt>
      <trkpt lat="47.09422" lon="-1.26048">
        <ele>17.44</ele>
        <time>2014-04-16T07:28:31Z</time>
      </trkpt>
      <trkpt lat="47.09435" lon="-1.26045">
        <ele>16.48</ele>
        <time>2014-04-16T07:28:40Z</time>
      </trkpt>
      <trkpt lat="47.09447" lon="-1.26038">
        <ele>16.48</ele>
        <time>2014-04-16T07:28:53Z</time>
      </trkpt>
      <trkpt lat="47.09458" lon="-1.26033">
        <ele>16.48</ele>
        <time>2014-04-16T07:29:05Z</time>
      </trkpt>
      <trkpt lat="47.09468" lon="-1.26023">
        <ele>17.92</ele>
        <time>2014-04-16T07:29:14Z</time>
      </trkpt>
      <trkpt lat="47.09475" lon="-1.2601">
        <ele>17.92</ele>
        <time>2014-04-16T07:29:24Z</time>
      </trkpt>
      <trkpt lat="47.09482" lon="-1.25995">
        <ele>17.92</ele>
        <time>2014-04-16T07:29:32Z</time>
      </trkpt>
      <trkpt lat="47.09486" lon="-1.25981">
        <ele>17.92</ele>
        <time>2014-04-16T07:29:40Z</time>
      </trkpt>
      <trkpt lat="47.0949" lon="-1.25966">
        <ele>17.92</ele>
        <time>2014-04-16T07:29:48Z</time>
      </trkpt>
      <trkpt lat="47.09492" lon="-1.25951">
        <ele>17.92</ele>
        <time>2014-04-16T07:29:57Z</time>
      </trkpt>
      <trkpt lat="47.09492" lon="-1.25936">
        <ele>17.92</ele>
        <time>2014-04-16T07:30:07Z</time>
      </trkpt>
      <trkpt lat="47.09495" lon="-1.2592">
        <ele>17.92</ele>
        <time>2014-04-16T07:30:18Z</time>
      </trkpt>
      <trkpt lat="47.09496" lon="-1.25903">
        <ele>17.92</ele>
        <time>2014-04-16T07:30:28Z</time>
      </trkpt>
      <trkpt lat="47.09498" lon="-1.25884">
        <ele>17.92</ele>
        <time>2014-04-16T07:30:38Z</time>
      </trkpt>
      <trkpt lat="47.09499" lon="-1.25866">
        <ele>17.92</ele>
        <time>2014-04-16T07:30:47Z</time>
      </trkpt>
      <trkpt lat="47.09499" lon="-1.25851">
        <ele>17.92</ele>
        <time>2014-04-16T07:30:55Z</time>
      </trkpt>
      <trkpt lat="47.09499" lon="-1.25834">
        <ele>17.92</ele>
        <time>2014-04-16T07:31:04Z</time>
      </trkpt>
      <trkpt lat="47.095" lon="-1.25816">
        <ele>17.44</ele>
        <time>2014-04-16T07:31:13Z</time>
      </trkpt>
      <trkpt lat="47.095" lon="-1.25799">
        <ele>17.44</ele>
        <time>2014-04-16T07:31:22Z</time>
      </trkpt>
      <trkpt lat="47.095" lon="-1.25783">
        <ele>17.44</ele>
        <time>2014-04-16T07:31:31Z</time>
      </trkpt>
      <trkpt lat="47.09499" lon="-1.25766">
        <ele>17.92</ele>
        <time>2014-04-16T07:31:40Z</time>
      </trkpt>
      <trkpt lat="47.095" lon="-1.2575">
        <ele>18.4</ele>
        <time>2014-04-16T07:31:48Z</time>
      </trkpt>
      <trkpt lat="47.09503" lon="-1.25734">
        <ele>18.4</ele>
        <time>2014-04-16T07:31:56Z</time>
      </trkpt>
      <trkpt lat="47.09505" lon="-1.25718">
        <ele>18.4</ele>
        <time>2014-04-16T07:32:05Z</time>
      </trkpt>
      <trkpt lat="47.09506" lon="-1.25703">
        <ele>18.4</ele>
        <time>2014-04-16T07:32:13Z</time>
      </trkpt>
      <trkpt lat="47.09506" lon="-1.25688">
        <ele>18.4</ele>
        <time>2014-04-16T07:32:22Z</time>
      </trkpt>
      <trkpt lat="47.09504" lon="-1.25672">
        <ele>18.4</ele>
        <time>2014-04-16T07:32:31Z</time>
      </trkpt>
      <trkpt lat="47.09503" lon="-1.25656">
        <ele>18.4</ele>
        <time>2014-04-16T07:32:41Z</time>
      </trkpt>
      <trkpt lat="47.09503" lon="-1.25637">
        <ele>18.4</ele>
        <time>2014-04-16T07:32:51Z</time>
      </trkpt>
      <trkpt lat="47.09506" lon="-1.25622">
        <ele>18.4</ele>
        <time>2014-04-16T07:32:59Z</time>
      </trkpt>
      <trkpt lat="47.09513" lon="-1.25607">
        <ele>17.92</ele>
        <time>2014-04-16T07:33:08Z</time>
      </trkpt>
      <trkpt lat="47.09521" lon="-1.25593">
        <ele>17.92</ele>
        <time>2014-04-16T07:33:17Z</time>
      </trkpt>
      <trkpt lat="47.09527" lon="-1.25582">
        <ele>16.96</ele>
        <time>2014-04-16T07:33:25Z</time>
      </trkpt>
      <trkpt lat="47.09533" lon="-1.25569">
        <ele>16.96</ele>
        <time>2014-04-16T07:33:34Z</time>
      </trkpt>
      <trkpt lat="47.09539" lon="-1.25556">
        <ele>16.96</ele>
        <time>2014-04-16T07:33:43Z</time>
      </trkpt>
      <trkpt lat="47.09546" lon="-1.25543">
        <ele>16.96</ele>
        <time>2014-04-16T07:33:53Z</time>
      </trkpt>
      <trkpt lat="47.09552" lon="-1.2553">
        <ele>17.92</ele>
        <time>2014-04-16T07:34:03Z</time>
      </trkpt>
      <trkpt lat="47.09559" lon="-1.25516">
        <ele>17.92</ele>
        <time>2014-04-16T07:34:11Z</time>
      </trkpt>
      <trkpt lat="47.09565" lon="-1.25502">
        <ele>17.92</ele>
        <time>2014-04-16T07:34:20Z</time>
      </trkpt>
      <trkpt lat="47.09568" lon="-1.25487">
        <ele>17.92</ele>
        <time>2014-04-16T07:34:29Z</time>
      </trkpt>
      <trkpt lat="47.09569" lon="-1.25473">
        <ele>17.92</ele>
        <time>2014-04-16T07:34:38Z</time>
      </trkpt>
      <trkpt lat="47.0957" lon="-1.25453">
        <ele>18.4</ele>
        <time>2014-04-16T07:34:48Z</time>
      </trkpt>
      <trkpt lat="47.09572" lon="-1.25435">
        <ele>18.4</ele>
        <time>2014-04-16T07:34:57Z</time>
      </trkpt>
      <trkpt lat="47.09573" lon="-1.25418">
        <ele>18.4</ele>
        <time>2014-04-16T07:35:06Z</time>
      </trkpt>
      <trkpt lat="47.09573" lon="-1.25403">
        <ele>18.4</ele>
        <time>2014-04-16T07:35:15Z</time>
      </trkpt>
      <trkpt lat="47.09575" lon="-1.25382">
        <ele>18.4</ele>
        <time>2014-04-16T07:35:27Z</time>
      </trkpt>
      <trkpt lat="47.09576" lon="-1.25364">
        <ele>18.4</ele>
        <time>2014-04-16T07:35:37Z</time>
      </trkpt>
      <trkpt lat="47.09572" lon="-1.25348">
        <ele>18.4</ele>
        <time>2014-04-16T07:35:46Z</time>
      </trkpt>
      <trkpt lat="47.09569" lon="-1.2533">
        <ele>17.92</ele>
        <time>2014-04-16T07:35:57Z</time>
      </trkpt>
      <trkpt lat="47.09566" lon="-1.25311">
        <ele>17.92</ele>
        <time>2014-04-16T07:36:08Z</time>
      </trkpt>
      <trkpt lat="47.09571" lon="-1.25292">
        <ele>18.4</ele>
        <time>2014-04-16T07:36:22Z</time>
      </trkpt>
      <trkpt lat="47.09579" lon="-1.25282">
        <ele>19.84</ele>
        <time>2014-04-16T07:36:33Z</time>
      </trkpt>
      <trkpt lat="47.09588" lon="-1.25268">
        <ele>20.81</ele>
        <time>2014-04-16T07:36:44Z</time>
      </trkpt>
      <trkpt lat="47.09596" lon="-1.25258">
        <ele>22.73</ele>
        <time>2014-04-16T07:36:54Z</time>
      </trkpt>
      <trkpt lat="47.09605" lon="-1.25249">
        <ele>23.21</ele>
        <time>2014-04-16T07:37:04Z</time>
      </trkpt>
      <trkpt lat="47.09616" lon="-1.25249">
        <ele>25.13</ele>
        <time>2014-04-16T07:37:14Z</time>
      </trkpt>
      <trkpt lat="47.09625" lon="-1.25254">
        <ele>26.09</ele>
        <time>2014-04-16T07:37:23Z</time>
      </trkpt>
      <trkpt lat="47.09634" lon="-1.25259">
        <ele>26.57</ele>
        <time>2014-04-16T07:37:31Z</time>
      </trkpt>
      <trkpt lat="47.09644" lon="-1.25262">
        <ele>27.05</ele>
        <time>2014-04-16T07:37:40Z</time>
      </trkpt>
      <trkpt lat="47.09654" lon="-1.25266">
        <ele>28.02</ele>
        <time>2014-04-16T07:37:50Z</time>
      </trkpt>
      <trkpt lat="47.09665" lon="-1.25269">
        <ele>28.5</ele>
        <time>2014-04-16T07:38:00Z</time>
      </trkpt>
      <trkpt lat="47.09676" lon="-1.25273">
        <ele>28.98</ele>
        <time>2014-04-16T07:38:09Z</time>
      </trkpt>
      <trkpt lat="47.09687" lon="-1.25277">
        <ele>28.98</ele>
        <time>2014-04-16T07:38:19Z</time>
      </trkpt>
      <trkpt lat="47.09699" lon="-1.25281">
        <ele>29.46</ele>
        <time>2014-04-16T07:38:28Z</time>
      </trkpt>
      <trkpt lat="47.09711" lon="-1.25287">
        <ele>29.94</ele>
        <time>2014-04-16T07:38:37Z</time>
      </trkpt>
      <trkpt lat="47.09721" lon="-1.25292">
        <ele>30.42</ele>
        <time>2014-04-16T07:38:46Z</time>
      </trkpt>
      <trkpt lat="47.0973" lon="-1.25297">
        <ele>30.9</ele>
        <time>2014-04-16T07:38:55Z</time>
      </trkpt>
      <trkpt lat="47.09742" lon="-1.25303">
        <ele>31.38</ele>
        <time>2014-04-16T07:39:05Z</time>
      </trkpt>
      <trkpt lat="47.09755" lon="-1.25308">
        <ele>31.38</ele>
        <time>2014-04-16T07:39:14Z</time>
      </trkpt>
      <trkpt lat="47.09766" lon="-1.25313">
        <ele>31.86</ele>
        <time>2014-04-16T07:39:23Z</time>
      </trkpt>
      <trkpt lat="47.09777" lon="-1.25319">
        <ele>31.86</ele>
        <time>2014-04-16T07:39:31Z</time>
      </trkpt>
      <trkpt lat="47.09787" lon="-1.25328">
        <ele>32.82</ele>
        <time>2014-04-16T07:40:44Z</time>
      </trkpt>
      <trkpt lat="47.09795" lon="-1.25335">
        <ele>32.82</ele>
        <time>2014-04-16T07:40:51Z</time>
      </trkpt>
      <trkpt lat="47.09805" lon="-1.25336">
        <ele>32.82</ele>
        <time>2014-04-16T07:40:59Z</time>
      </trkpt>
      <trkpt lat="47.09815" lon="-1.25337">
        <ele>32.82</ele>
        <time>2014-04-16T07:41:06Z</time>
      </trkpt>
      <trkpt lat="47.09826" lon="-1.25338">
        <ele>32.82</ele>
        <time>2014-04-16T07:41:13Z</time>
      </trkpt>
      <trkpt lat="47.09835" lon="-1.25339">
        <ele>32.82</ele>
        <time>2014-04-16T07:41:20Z</time>
      </trkpt>
      <trkpt lat="47.09845" lon="-1.2534">
        <ele>32.82</ele>
        <time>2014-04-16T07:41:27Z</time>
      </trkpt>
      <trkpt lat="47.09855" lon="-1.25341">
        <ele>32.82</ele>
        <time>2014-04-16T07:41:34Z</time>
      </trkpt>
      <trkpt lat="47.09866" lon="-1.25342">
        <ele>32.82</ele>
        <time>2014-04-16T07:41:42Z</time>
      </trkpt>
      <trkpt lat="47.09877" lon="-1.25343">
        <ele>32.82</ele>
        <time>2014-04-16T07:41:50Z</time>
      </trkpt>
      <trkpt lat="47.09887" lon="-1.25343">
        <ele>33.3</ele>
        <time>2014-04-16T07:41:58Z</time>
      </trkpt>
      <trkpt lat="47.09897" lon="-1.25343">
        <ele>33.3</ele>
        <time>2014-04-16T07:42:05Z</time>
      </trkpt>
      <trkpt lat="47.09907" lon="-1.25339">
        <ele>33.78</ele>
        <time>2014-04-16T07:42:12Z</time>
      </trkpt>
      <trkpt lat="47.09917" lon="-1.25335">
        <ele>33.78</ele>
        <time>2014-04-16T07:42:19Z</time>
      </trkpt>
      <trkpt lat="47.09927" lon="-1.25331">
        <ele>33.78</ele>
        <time>2014-04-16T07:42:26Z</time>
      </trkpt>
      <trkpt lat="47.09936" lon="-1.25326">
        <ele>34.26</ele>
        <time>2014-04-16T07:42:33Z</time>
      </trkpt>
      <trkpt lat="47.09946" lon="-1.25323">
        <ele>34.26</ele>
        <time>2014-04-16T07:42:41Z</time>
      </trkpt>
      <trkpt lat="47.09956" lon="-1.2532">
        <ele>34.74</ele>
        <time>2014-04-16T07:42:48Z</time>
      </trkpt>
      <trkpt lat="47.09966" lon="-1.25317">
        <ele>34.74</ele>
        <time>2014-04-16T07:42:55Z</time>
      </trkpt>
      <trkpt lat="47.09975" lon="-1.25314">
        <ele>34.74</ele>
        <time>2014-04-16T07:43:02Z</time>
      </trkpt>
      <trkpt lat="47.09985" lon="-1.25313">
        <ele>35.71</ele>
        <time>2014-04-16T07:43:09Z</time>
      </trkpt>
      <trkpt lat="47.09995" lon="-1.25311">
        <ele>35.23</ele>
        <time>2014-04-16T07:43:16Z</time>
      </trkpt>
      <trkpt lat="47.10005" lon="-1.2531">
        <ele>35.23</ele>
        <time>2014-04-16T07:43:24Z</time>
      </trkpt>
      <trkpt lat="47.10014" lon="-1.25308">
        <ele>35.23</ele>
        <time>2014-04-16T07:43:31Z</time>
      </trkpt>
      <trkpt lat="47.10023" lon="-1.25306">
        <ele>36.19</ele>
        <time>2014-04-16T07:43:38Z</time>
      </trkpt>
      <trkpt lat="47.10032" lon="-1.25304">
        <ele>35.71</ele>
        <time>2014-04-16T07:43:45Z</time>
      </trkpt>
      <trkpt lat="47.10041" lon="-1.25301">
        <ele>36.19</ele>
        <time>2014-04-16T07:43:52Z</time>
      </trkpt>
      <trkpt lat="47.10051" lon="-1.25298">
        <ele>36.67</ele>
        <time>2014-04-16T07:44:00Z</time>
      </trkpt>
      <trkpt lat="47.10061" lon="-1.25293">
        <ele>37.15</ele>
        <time>2014-04-16T07:44:07Z</time>
      </trkpt>
      <trkpt lat="47.1007" lon="-1.25286">
        <ele>37.15</ele>
        <time>2014-04-16T07:44:14Z</time>
      </trkpt>
      <trkpt lat="47.10079" lon="-1.25278">
        <ele>37.15</ele>
        <time>2014-04-16T07:44:21Z</time>
      </trkpt>
      <trkpt lat="47.10087" lon="-1.2527">
        <ele>37.15</ele>
        <time>2014-04-16T07:44:28Z</time>
      </trkpt>
      <trkpt lat="47.10095" lon="-1.25259">
        <ele>38.11</ele>
        <time>2014-04-16T07:44:35Z</time>
      </trkpt>
      <trkpt lat="47.10102" lon="-1.25248">
        <ele>38.11</ele>
        <time>2014-04-16T07:44:42Z</time>
      </trkpt>
      <trkpt lat="47.10108" lon="-1.25238">
        <ele>38.11</ele>
        <time>2014-04-16T07:44:49Z</time>
      </trkpt>
      <trkpt lat="47.10116" lon="-1.25228">
        <ele>38.59</ele>
        <time>2014-04-16T07:44:56Z</time>
      </trkpt>
      <trkpt lat="47.10122" lon="-1.25217">
        <ele>38.59</ele>
        <time>2014-04-16T07:45:03Z</time>
      </trkpt>
      <trkpt lat="47.10129" lon="-1.25206">
        <ele>39.55</ele>
        <time>2014-04-16T07:45:10Z</time>
      </trkpt>
      <trkpt lat="47.10136" lon="-1.25196">
        <ele>39.55</ele>
        <time>2014-04-16T07:45:17Z</time>
      </trkpt>
      <trkpt lat="47.10142" lon="-1.25186">
        <ele>38.59</ele>
        <time>2014-04-16T07:45:25Z</time>
      </trkpt>
      <trkpt lat="47.10149" lon="-1.25177">
        <ele>38.59</ele>
        <time>2014-04-16T07:45:33Z</time>
      </trkpt>
      <trkpt lat="47.10155" lon="-1.25167">
        <ele>40.51</ele>
        <time>2014-04-16T07:45:41Z</time>
      </trkpt>
      <trkpt lat="47.10162" lon="-1.25157">
        <ele>40.51</ele>
        <time>2014-04-16T07:45:49Z</time>
      </trkpt>
      <trkpt lat="47.10169" lon="-1.25147">
        <ele>40.51</ele>
        <time>2014-04-16T07:46:00Z</time>
      </trkpt>
      <trkpt lat="47.10177" lon="-1.25138">
        <ele>40.51</ele>
        <time>2014-04-16T07:46:10Z</time>
      </trkpt>
      <trkpt lat="47.10186" lon="-1.25131">
        <ele>41.95</ele>
        <time>2014-04-16T07:46:19Z</time>
      </trkpt>
      <trkpt lat="47.10194" lon="-1.25123">
        <ele>41.95</ele>
        <time>2014-04-16T07:46:28Z</time>
      </trkpt>
      <trkpt lat="47.10202" lon="-1.25115">
        <ele>42.44</ele>
        <time>2014-04-16T07:46:36Z</time>
      </trkpt>
      <trkpt lat="47.1021" lon="-1.25108">
        <ele>42.92</ele>
        <time>2014-04-16T07:46:44Z</time>
      </trkpt>
      <trkpt lat="47.10218" lon="-1.25101">
        <ele>43.4</ele>
        <time>2014-04-16T07:46:53Z</time>
      </trkpt>
      <trkpt lat="47.10225" lon="-1.25092">
        <ele>43.88</ele>
        <time>2014-04-16T07:47:02Z</time>
      </trkpt>
      <trkpt lat="47.10231" lon="-1.2508">
        <ele>43.88</ele>
        <time>2014-04-16T07:47:11Z</time>
      </trkpt>
      <trkpt lat="47.10237" lon="-1.25067">
        <ele>44.36</ele>
        <time>2014-04-16T07:47:20Z</time>
      </trkpt>
      <trkpt lat="47.1024" lon="-1.25053">
        <ele>43.4</ele>
        <time>2014-04-16T07:47:29Z</time>
      </trkpt>
      <trkpt lat="47.1024" lon="-1.25038">
        <ele>42.44</ele>
        <time>2014-04-16T07:47:38Z</time>
      </trkpt>
      <trkpt lat="47.10238" lon="-1.25024">
        <ele>44.36</ele>
        <time>2014-04-16T07:47:47Z</time>
      </trkpt>
      <trkpt lat="47.10234" lon="-1.25011">
        <ele>44.84</ele>
        <time>2014-04-16T07:47:56Z</time>
      </trkpt>
      <trkpt lat="47.10231" lon="-1.24998">
        <ele>44.84</ele>
        <time>2014-04-16T07:48:04Z</time>
      </trkpt>
      <trkpt lat="47.10228" lon="-1.24984">
        <ele>44.84</ele>
        <time>2014-04-16T07:48:13Z</time>
      </trkpt>
      <trkpt lat="47.10224" lon="-1.24971">
        <ele>44.84</ele>
        <time>2014-04-16T07:48:21Z</time>
      </trkpt>
      <trkpt lat="47.10222" lon="-1.24957">
        <ele>44.84</ele>
        <time>2014-04-16T07:48:30Z</time>
      </trkpt>
      <trkpt lat="47.10218" lon="-1.24944">
        <ele>44.84</ele>
        <time>2014-04-16T07:48:38Z</time>
      </trkpt>
      <trkpt lat="47.10216" lon="-1.2493">
        <ele>43.88</ele>
        <time>2014-04-16T07:48:46Z</time>
      </trkpt>
      <trkpt lat="47.10213" lon="-1.24916">
        <ele>43.88</ele>
        <time>2014-04-16T07:48:54Z</time>
      </trkpt>
      <trkpt lat="47.10212" lon="-1.24903">
        <ele>44.36</ele>
        <time>2014-04-16T07:49:02Z</time>
      </trkpt>
      <trkpt lat="47.10208" lon="-1.24891">
        <ele>43.88</ele>
        <time>2014-04-16T07:49:09Z</time>
      </trkpt>
      <trkpt lat="47.10206" lon="-1.24877">
        <ele>43.88</ele>
        <time>2014-04-16T07:49:17Z</time>
      </trkpt>
      <trkpt lat="47.10203" lon="-1.24863">
        <ele>43.88</ele>
        <time>2014-04-16T07:49:25Z</time>
      </trkpt>
      <trkpt lat="47.10201" lon="-1.2485">
        <ele>43.4</ele>
        <time>2014-04-16T07:49:32Z</time>
      </trkpt>
      <trkpt lat="47.10198" lon="-1.24837">
        <ele>44.84</ele>
        <time>2014-04-16T07:49:39Z</time>
      </trkpt>
      <trkpt lat="47.10194" lon="-1.24823">
        <ele>43.4</ele>
        <time>2014-04-16T07:49:46Z</time>
      </trkpt>
      <trkpt lat="47.10191" lon="-1.2481">
        <ele>42.92</ele>
        <time>2014-04-16T07:49:53Z</time>
      </trkpt>
      <trkpt lat="47.10188" lon="-1.24797">
        <ele>43.88</ele>
        <time>2014-04-16T07:50:01Z</time>
      </trkpt>
      <trkpt lat="47.10186" lon="-1.24784">
        <ele>43.88</ele>
        <time>2014-04-16T07:50:09Z</time>
      </trkpt>
      <trkpt lat="47.10183" lon="-1.24771">
        <ele>43.88</ele>
        <time>2014-04-16T07:50:16Z</time>
      </trkpt>
      <trkpt lat="47.10181" lon="-1.24756">
        <ele>42.44</ele>
        <time>2014-04-16T07:50:24Z</time>
      </trkpt>
      <trkpt lat="47.10178" lon="-1.24742">
        <ele>41.95</ele>
        <time>2014-04-16T07:50:31Z</time>
      </trkpt>
      <trkpt lat="47.10175" lon="-1.24727">
        <ele>41.95</ele>
        <time>2014-04-16T07:50:39Z</time>
      </trkpt>
      <trkpt lat="47.10172" lon="-1.24712">
        <ele>41.47</ele>
        <time>2014-04-16T07:50:47Z</time>
      </trkpt>
      <trkpt lat="47.10169" lon="-1.24697">
        <ele>41.47</ele>
        <time>2014-04-16T07:50:56Z</time>
      </trkpt>
      <trkpt lat="47.10167" lon="-1.24683">
        <ele>41.47</ele>
        <time>2014-04-16T07:51:05Z</time>
      </trkpt>
      <trkpt lat="47.10164" lon="-1.24665">
        <ele>41.47</ele>
        <time>2014-04-16T07:51:15Z</time>
      </trkpt>
      <trkpt lat="47.10163" lon="-1.24648">
        <ele>42.92</ele>
        <time>2014-04-16T07:51:24Z</time>
      </trkpt>
      <trkpt lat="47.10165" lon="-1.24632">
        <ele>42.92</ele>
        <time>2014-04-16T07:51:34Z</time>
      </trkpt>
      <trkpt lat="47.10168" lon="-1.24615">
        <ele>43.4</ele>
        <time>2014-04-16T07:51:43Z</time>
      </trkpt>
      <trkpt lat="47.1017" lon="-1.24602">
        <ele>43.88</ele>
        <time>2014-04-16T07:51:52Z</time>
      </trkpt>
      <trkpt lat="47.10175" lon="-1.24587">
        <ele>43.88</ele>
        <time>2014-04-16T07:52:02Z</time>
      </trkpt>
      <trkpt lat="47.10179" lon="-1.24574">
        <ele>44.84</ele>
        <time>2014-04-16T07:52:09Z</time>
      </trkpt>
      <trkpt lat="47.10182" lon="-1.2456">
        <ele>45.32</ele>
        <time>2014-04-16T07:52:16Z</time>
      </trkpt>
      <trkpt lat="47.10187" lon="-1.24547">
        <ele>45.32</ele>
        <time>2014-04-16T07:52:23Z</time>
      </trkpt>
      <trkpt lat="47.10191" lon="-1.24533">
        <ele>46.28</ele>
        <time>2014-04-16T07:52:30Z</time>
      </trkpt>
      <trkpt lat="47.10195" lon="-1.24518">
        <ele>46.76</ele>
        <time>2014-04-16T07:52:37Z</time>
      </trkpt>
      <trkpt lat="47.10199" lon="-1.24504">
        <ele>46.76</ele>
        <time>2014-04-16T07:52:45Z</time>
      </trkpt>
      <trkpt lat="47.10203" lon="-1.24491">
        <ele>47.72</ele>
        <time>2014-04-16T07:52:52Z</time>
      </trkpt>
      <trkpt lat="47.10208" lon="-1.24478">
        <ele>46.76</ele>
        <time>2014-04-16T07:52:59Z</time>
      </trkpt>
      <trkpt lat="47.10211" lon="-1.24464">
        <ele>47.72</ele>
        <time>2014-04-16T07:53:06Z</time>
      </trkpt>
      <trkpt lat="47.10213" lon="-1.24449">
        <ele>49.16</ele>
        <time>2014-04-16T07:53:13Z</time>
      </trkpt>
      <trkpt lat="47.10213" lon="-1.24435">
        <ele>49.16</ele>
        <time>2014-04-16T07:53:20Z</time>
      </trkpt>
      <trkpt lat="47.1021" lon="-1.24422">
        <ele>49.65</ele>
        <time>2014-04-16T07:53:27Z</time>
      </trkpt>
      <trkpt lat="47.10207" lon="-1.24409">
        <ele>49.65</ele>
        <time>2014-04-16T07:53:34Z</time>
      </trkpt>
      <trkpt lat="47.10205" lon="-1.24394">
        <ele>50.13</ele>
        <time>2014-04-16T07:53:41Z</time>
      </trkpt>
      <trkpt lat="47.10201" lon="-1.24381">
        <ele>50.13</ele>
        <time>2014-04-16T07:53:48Z</time>
      </trkpt>
      <trkpt lat="47.102" lon="-1.24366">
        <ele>50.13</ele>
        <time>2014-04-16T07:53:56Z</time>
      </trkpt>
      <trkpt lat="47.10203" lon="-1.24351">
        <ele>50.13</ele>
        <time>2014-04-16T07:54:04Z</time>
      </trkpt>
      <trkpt lat="47.10206" lon="-1.24333">
        <ele>50.61</ele>
        <time>2014-04-16T07:54:11Z</time>
      </trkpt>
      <trkpt lat="47.10212" lon="-1.24321">
        <ele>51.57</ele>
        <time>2014-04-16T07:54:18Z</time>
      </trkpt>
      <trkpt lat="47.10213" lon="-1.24309">
        <ele>51.57</ele>
        <time>2014-04-16T07:54:25Z</time>
      </trkpt>
      <trkpt lat="47.10208" lon="-1.24298">
        <ele>51.57</ele>
        <time>2014-04-16T07:54:32Z</time>
      </trkpt>
      <trkpt lat="47.10201" lon="-1.24289">
        <ele>52.05</ele>
        <time>2014-04-16T07:54:39Z</time>
      </trkpt>
      <trkpt lat="47.10193" lon="-1.24282">
        <ele>52.05</ele>
        <time>2014-04-16T07:54:46Z</time>
      </trkpt>
      <trkpt lat="47.10185" lon="-1.24275">
        <ele>50.61</ele>
        <time>2014-04-16T07:54:53Z</time>
      </trkpt>
      <trkpt lat="47.10177" lon="-1.24268">
        <ele>50.61</ele>
        <time>2014-04-16T07:55:00Z</time>
      </trkpt>
      <trkpt lat="47.10168" lon="-1.24258">
        <ele>49.65</ele>
        <time>2014-04-16T07:55:09Z</time>
      </trkpt>
      <trkpt lat="47.1016" lon="-1.2425">
        <ele>49.16</ele>
        <time>2014-04-16T07:55:17Z</time>
      </trkpt>
      <trkpt lat="47.10153" lon="-1.24239">
        <ele>47.72</ele>
        <time>2014-04-16T07:55:26Z</time>
      </trkpt>
      <trkpt lat="47.10147" lon="-1.24227">
        <ele>47.72</ele>
        <time>2014-04-16T07:55:34Z</time>
      </trkpt>
      <trkpt lat="47.10136" lon="-1.24222">
        <ele>47.72</ele>
        <time>2014-04-16T07:55:42Z</time>
      </trkpt>
      <trkpt lat="47.10126" lon="-1.24227">
        <ele>47.24</ele>
        <time>2014-04-16T07:55:52Z</time>
      </trkpt>
      <trkpt lat="47.10112" lon="-1.2423">
        <ele>48.68</ele>
        <time>2014-04-16T07:56:00Z</time>
      </trkpt>
      <trkpt lat="47.101" lon="-1.24236">
        <ele>49.16</ele>
        <time>2014-04-16T07:56:07Z</time>
      </trkpt>
      <trkpt lat="47.10092" lon="-1.24248">
        <ele>48.68</ele>
        <time>2014-04-16T07:56:14Z</time>
      </trkpt>
      <trkpt lat="47.10085" lon="-1.24259">
        <ele>48.68</ele>
        <time>2014-04-16T07:56:21Z</time>
      </trkpt>
      <trkpt lat="47.10079" lon="-1.24271">
        <ele>47.72</ele>
        <time>2014-04-16T07:56:28Z</time>
      </trkpt>
      <trkpt lat="47.10073" lon="-1.24283">
        <ele>47.24</ele>
        <time>2014-04-16T07:56:35Z</time>
      </trkpt>
      <trkpt lat="47.10068" lon="-1.24296">
        <ele>46.76</ele>
        <time>2014-04-16T07:56:42Z</time>
      </trkpt>
      <trkpt lat="47.10063" lon="-1.2431">
        <ele>46.28</ele>
        <time>2014-04-16T07:56:49Z</time>
      </trkpt>
      <trkpt lat="47.10059" lon="-1.24323">
        <ele>45.8</ele>
        <time>2014-04-16T07:56:56Z</time>
      </trkpt>
      <trkpt lat="47.10056" lon="-1.24337">
        <ele>45.8</ele>
        <time>2014-04-16T07:57:03Z</time>
      </trkpt>
      <trkpt lat="47.10051" lon="-1.24351">
        <ele>45.32</ele>
        <time>2014-04-16T07:57:10Z</time>
      </trkpt>
      <trkpt lat="47.10048" lon="-1.24364">
        <ele>44.84</ele>
        <time>2014-04-16T07:57:17Z</time>
      </trkpt>
      <trkpt lat="47.10043" lon="-1.24378">
        <ele>44.36</ele>
        <time>2014-04-16T07:57:24Z</time>
      </trkpt>
      <trkpt lat="47.10039" lon="-1.24392">
        <ele>44.36</ele>
        <time>2014-04-16T07:57:31Z</time>
      </trkpt>
      <trkpt lat="47.10035" lon="-1.24405">
        <ele>43.88</ele>
        <time>2014-04-16T07:57:38Z</time>
      </trkpt>
      <trkpt lat="47.1003" lon="-1.24417">
        <ele>43.88</ele>
        <time>2014-04-16T07:57:46Z</time>
      </trkpt>
      <trkpt lat="47.10024" lon="-1.2443">
        <ele>43.4</ele>
        <time>2014-04-16T07:57:55Z</time>
      </trkpt>
      <trkpt lat="47.10017" lon="-1.24446">
        <ele>43.4</ele>
        <time>2014-04-16T07:58:03Z</time>
      </trkpt>
      <trkpt lat="47.10011" lon="-1.24461">
        <ele>43.4</ele>
        <time>2014-04-16T07:58:10Z</time>
      </trkpt>
      <trkpt lat="47.10006" lon="-1.24474">
        <ele>42.92</ele>
        <time>2014-04-16T07:58:17Z</time>
      </trkpt>
      <trkpt lat="47.10001" lon="-1.24487">
        <ele>42.44</ele>
        <time>2014-04-16T07:58:24Z</time>
      </trkpt>
      <trkpt lat="47.09994" lon="-1.24499">
        <ele>41.95</ele>
        <time>2014-04-16T07:58:31Z</time>
      </trkpt>
      <trkpt lat="47.09987" lon="-1.24509">
        <ele>41.47</ele>
        <time>2014-04-16T07:58:38Z</time>
      </trkpt>
      <trkpt lat="47.09978" lon="-1.24518">
        <ele>40.99</ele>
        <time>2014-04-16T07:58:46Z</time>
      </trkpt>
      <trkpt lat="47.09969" lon="-1.24525">
        <ele>40.99</ele>
        <time>2014-04-16T07:58:55Z</time>
      </trkpt>
      <trkpt lat="47.09956" lon="-1.24529">
        <ele>40.51</ele>
        <time>2014-04-16T07:59:04Z</time>
      </trkpt>
      <trkpt lat="47.09944" lon="-1.24537">
        <ele>40.03</ele>
        <time>2014-04-16T07:59:14Z</time>
      </trkpt>
      <trkpt lat="47.09933" lon="-1.24543">
        <ele>40.03</ele>
        <time>2014-04-16T07:59:22Z</time>
      </trkpt>
      <trkpt lat="47.09922" lon="-1.24549">
        <ele>40.03</ele>
        <time>2014-04-16T07:59:31Z</time>
      </trkpt>
      <trkpt lat="47.09909" lon="-1.24554">
        <ele>40.03</ele>
        <time>2014-04-16T07:59:40Z</time>
      </trkpt>
      <trkpt lat="47.09898" lon="-1.24559">
        <ele>39.07</ele>
        <time>2014-04-16T07:59:48Z</time>
      </trkpt>
      <trkpt lat="47.09887" lon="-1.24562">
        <ele>39.07</ele>
        <time>2014-04-16T07:59:56Z</time>
      </trkpt>
      <trkpt lat="47.09876" lon="-1.24566">
        <ele>38.59</ele>
        <time>2014-04-16T08:00:03Z</time>
      </trkpt>
      <trkpt lat="47.09866" lon="-1.24569">
        <ele>38.11</ele>
        <time>2014-04-16T08:00:10Z</time>
      </trkpt>
      <trkpt lat="47.09857" lon="-1.24575">
        <ele>37.63</ele>
        <time>2014-04-16T08:00:18Z</time>
      </trkpt>
      <trkpt lat="47.09846" lon="-1.24578">
        <ele>37.15</ele>
        <time>2014-04-16T08:00:27Z</time>
      </trkpt>
      <trkpt lat="47.09834" lon="-1.24583">
        <ele>37.15</ele>
        <time>2014-04-16T08:00:44Z</time>
      </trkpt>
      <trkpt lat="47.09831" lon="-1.24566">
        <ele>37.15</ele>
        <time>2014-04-16T08:01:13Z</time>
      </trkpt>
      <trkpt lat="47.09833" lon="-1.24551">
        <ele>38.11</ele>
        <time>2014-04-16T08:01:21Z</time>
      </trkpt>
      <trkpt lat="47.09836" lon="-1.24535">
        <ele>38.11</ele>
        <time>2014-04-16T08:01:29Z</time>
      </trkpt>
      <trkpt lat="47.09837" lon="-1.24521">
        <ele>39.07</ele>
        <time>2014-04-16T08:01:36Z</time>
      </trkpt>
      <trkpt lat="47.09839" lon="-1.24507">
        <ele>39.07</ele>
        <time>2014-04-16T08:01:43Z</time>
      </trkpt>
      <trkpt lat="47.09833" lon="-1.24498">
        <ele>40.03</ele>
        <time>2014-04-16T08:01:50Z</time>
      </trkpt>
      <trkpt lat="47.09823" lon="-1.24494">
        <ele>40.99</ele>
        <time>2014-04-16T08:01:57Z</time>
      </trkpt>
      <trkpt lat="47.09814" lon="-1.2449">
        <ele>41.47</ele>
        <time>2014-04-16T08:02:04Z</time>
      </trkpt>
      <trkpt lat="47.09804" lon="-1.24484">
        <ele>41.95</ele>
        <time>2014-04-16T08:02:12Z</time>
      </trkpt>
      <trkpt lat="47.09794" lon="-1.2448">
        <ele>42.44</ele>
        <time>2014-04-16T08:02:21Z</time>
      </trkpt>
      <trkpt lat="47.09784" lon="-1.24476">
        <ele>43.88</ele>
        <time>2014-04-16T08:02:29Z</time>
      </trkpt>
      <trkpt lat="47.09774" lon="-1.24471">
        <ele>44.36</ele>
        <time>2014-04-16T08:02:36Z</time>
      </trkpt>
      <trkpt lat="47.09764" lon="-1.24467">
        <ele>44.84</ele>
        <time>2014-04-16T08:02:43Z</time>
      </trkpt>
      <trkpt lat="47.09754" lon="-1.24463">
        <ele>44.84</ele>
        <time>2014-04-16T08:02:50Z</time>
      </trkpt>
      <trkpt lat="47.09746" lon="-1.24459">
        <ele>44.36</ele>
        <time>2014-04-16T08:02:56Z</time>
      </trkpt>
      <trkpt lat="47.09736" lon="-1.24454">
        <ele>44.36</ele>
        <time>2014-04-16T08:03:03Z</time>
      </trkpt>
      <trkpt lat="47.09726" lon="-1.2445">
        <ele>43.4</ele>
        <time>2014-04-16T08:03:11Z</time>
      </trkpt>
      <trkpt lat="47.09716" lon="-1.24445">
        <ele>42.92</ele>
        <time>2014-04-16T08:03:18Z</time>
      </trkpt>
      <trkpt lat="47.09707" lon="-1.2444">
        <ele>41.95</ele>
        <time>2014-04-16T08:03:25Z</time>
      </trkpt>
      <trkpt lat="47.09699" lon="-1.24435">
        <ele>40.51</ele>
        <time>2014-04-16T08:03:33Z</time>
      </trkpt>
      <trkpt lat="47.0969" lon="-1.24428">
        <ele>39.55</ele>
        <time>2014-04-16T08:03:41Z</time>
      </trkpt>
      <trkpt lat="47.09681" lon="-1.24422">
        <ele>39.07</ele>
        <time>2014-04-16T08:03:48Z</time>
      </trkpt>
      <trkpt lat="47.09673" lon="-1.24415">
        <ele>38.11</ele>
        <time>2014-04-16T08:03:56Z</time>
      </trkpt>
      <trkpt lat="47.09665" lon="-1.24405">
        <ele>35.71</ele>
        <time>2014-04-16T08:04:06Z</time>
      </trkpt>
      <trkpt lat="47.09655" lon="-1.24396">
        <ele>34.26</ele>
        <time>2014-04-16T08:04:16Z</time>
      </trkpt>
      <trkpt lat="47.09645" lon="-1.24388">
        <ele>32.34</ele>
        <time>2014-04-16T08:04:25Z</time>
      </trkpt>
      <trkpt lat="47.09634" lon="-1.24383">
        <ele>31.38</ele>
        <time>2014-04-16T08:04:34Z</time>
      </trkpt>
      <trkpt lat="47.09621" lon="-1.24378">
        <ele>31.38</ele>
        <time>2014-04-16T08:04:44Z</time>
      </trkpt>
      <trkpt lat="47.09617" lon="-1.2436">
        <ele>30.9</ele>
        <time>2014-04-16T08:04:55Z</time>
      </trkpt>
      <trkpt lat="47.09608" lon="-1.2435">
        <ele>32.34</ele>
        <time>2014-04-16T08:05:05Z</time>
      </trkpt>
      <trkpt lat="47.09593" lon="-1.24337">
        <ele>33.78</ele>
        <time>2014-04-16T08:05:24Z</time>
      </trkpt>
      <trkpt lat="47.09579" lon="-1.24328">
        <ele>33.78</ele>
        <time>2014-04-16T08:05:33Z</time>
      </trkpt>
      <trkpt lat="47.09566" lon="-1.24318">
        <ele>34.74</ele>
        <time>2014-04-16T08:05:42Z</time>
      </trkpt>
      <trkpt lat="47.09556" lon="-1.24308">
        <ele>35.71</ele>
        <time>2014-04-16T08:05:54Z</time>
      </trkpt>
      <trkpt lat="47.09544" lon="-1.243">
        <ele>35.23</ele>
        <time>2014-04-16T08:06:06Z</time>
      </trkpt>
      <trkpt lat="47.09535" lon="-1.24288">
        <ele>36.19</ele>
        <time>2014-04-16T08:06:15Z</time>
      </trkpt>
      <trkpt lat="47.09535" lon="-1.24271">
        <ele>36.19</ele>
        <time>2014-04-16T08:06:24Z</time>
      </trkpt>
      <trkpt lat="47.09536" lon="-1.24257">
        <ele>36.67</ele>
        <time>2014-04-16T08:06:33Z</time>
      </trkpt>
      <trkpt lat="47.09534" lon="-1.24238">
        <ele>38.11</ele>
        <time>2014-04-16T08:06:50Z</time>
      </trkpt>
      <trkpt lat="47.09533" lon="-1.2421">
        <ele>39.55</ele>
        <time>2014-04-16T08:07:09Z</time>
      </trkpt>
      <trkpt lat="47.09525" lon="-1.24199">
        <ele>36.67</ele>
        <time>2014-04-16T08:07:21Z</time>
      </trkpt>
      <trkpt lat="47.09516" lon="-1.24186">
        <ele>34.74</ele>
        <time>2014-04-16T08:07:31Z</time>
      </trkpt>
      <trkpt lat="47.09512" lon="-1.24169">
        <ele>34.74</ele>
        <time>2014-04-16T08:07:43Z</time>
      </trkpt>
      <trkpt lat="47.09507" lon="-1.24141">
        <ele>33.78</ele>
        <time>2014-04-16T08:07:59Z</time>
      </trkpt>
      <trkpt lat="47.09507" lon="-1.24118">
        <ele>33.78</ele>
        <time>2014-04-16T08:08:12Z</time>
      </trkpt>
      <trkpt lat="47.09503" lon="-1.24094">
        <ele>28.98</ele>
        <time>2014-04-16T08:08:27Z</time>
      </trkpt>
      <trkpt lat="47.09537" lon="-1.24018">
        <ele>15.52</ele>
        <time>2014-04-16T08:09:42Z</time>
      </trkpt>
      <trkpt lat="47.09557" lon="-1.24004">
        <ele>16.96</ele>
        <time>2014-04-16T08:09:58Z</time>
      </trkpt>
      <trkpt lat="47.09593" lon="-1.23972">
        <ele>16</ele>
        <time>2014-04-16T08:10:30Z</time>
      </trkpt>
      <trkpt lat="47.09611" lon="-1.23954">
        <ele>16.96</ele>
        <time>2014-04-16T08:10:49Z</time>
      </trkpt>
      <trkpt lat="47.09626" lon="-1.23924">
        <ele>16.96</ele>
        <time>2014-04-16T08:11:09Z</time>
      </trkpt>
      <trkpt lat="47.09639" lon="-1.23903">
        <ele>16.96</ele>
        <time>2014-04-16T08:11:26Z</time>
      </trkpt>
      <trkpt lat="47.09651" lon="-1.23868">
        <ele>15.52</ele>
        <time>2014-04-16T08:11:47Z</time>
      </trkpt>
      <trkpt lat="47.09649" lon="-1.23843">
        <ele>15.52</ele>
        <time>2014-04-16T08:12:01Z</time>
      </trkpt>
      <trkpt lat="47.0965" lon="-1.23819">
        <ele>15.52</ele>
        <time>2014-04-16T08:12:15Z</time>
      </trkpt>
      <trkpt lat="47.09652" lon="-1.23803">
        <ele>15.52</ele>
        <time>2014-04-16T08:12:27Z</time>
      </trkpt>
      <trkpt lat="47.09652" lon="-1.23786">
        <ele>15.52</ele>
        <time>2014-04-16T08:12:37Z</time>
      </trkpt>
      <trkpt lat="47.09652" lon="-1.23758">
        <ele>15.04</ele>
        <time>2014-04-16T08:12:53Z</time>
      </trkpt>
      <trkpt lat="47.0965" lon="-1.23733">
        <ele>15.04</ele>
        <time>2014-04-16T08:13:07Z</time>
      </trkpt>
      <trkpt lat="47.09648" lon="-1.23706">
        <ele>15.04</ele>
        <time>2014-04-16T08:13:21Z</time>
      </trkpt>
      <trkpt lat="47.09644" lon="-1.23683">
        <ele>15.04</ele>
        <time>2014-04-16T08:13:32Z</time>
      </trkpt>
      <trkpt lat="47.09652" lon="-1.23669">
        <ele>16.48</ele>
        <time>2014-04-16T08:13:45Z</time>
      </trkpt>
      <trkpt lat="47.09663" lon="-1.23669">
        <ele>17.44</ele>
        <time>2014-04-16T08:13:54Z</time>
      </trkpt>
      <trkpt lat="47.09674" lon="-1.2367">
        <ele>18.4</ele>
        <time>2014-04-16T08:14:05Z</time>
      </trkpt>
      <trkpt lat="47.09681" lon="-1.23677">
        <ele>20.81</ele>
        <time>2014-04-16T08:14:15Z</time>
      </trkpt>
      <trkpt lat="47.09688" lon="-1.2369">
        <ele>24.17</ele>
        <time>2014-04-16T08:14:28Z</time>
      </trkpt>
      <trkpt lat="47.09696" lon="-1.23702">
        <ele>26.57</ele>
        <time>2014-04-16T08:14:47Z</time>
      </trkpt>
      <trkpt lat="47.09706" lon="-1.23703">
        <ele>30.9</ele>
        <time>2014-04-16T08:15:01Z</time>
      </trkpt>
      <trkpt lat="47.0971" lon="-1.23689">
        <ele>32.34</ele>
        <time>2014-04-16T08:15:12Z</time>
      </trkpt>
      <trkpt lat="47.09711" lon="-1.23676">
        <ele>35.23</ele>
        <time>2014-04-16T08:15:28Z</time>
      </trkpt>
      <trkpt lat="47.09709" lon="-1.23677">
        <ele>34.74</ele>
        <time>2014-04-16T08:16:23Z</time>
      </trkpt>
      <trkpt lat="47.0972" lon="-1.23673">
        <ele>35.23</ele>
        <time>2014-04-16T08:18:11Z</time>
      </trkpt>
      <trkpt lat="47.09728" lon="-1.23672">
        <ele>36.19</ele>
        <time>2014-04-16T08:18:19Z</time>
      </trkpt>
      <trkpt lat="47.0973" lon="-1.23676">
        <ele>37.15</ele>
        <time>2014-04-16T08:19:23Z</time>
      </trkpt>
      <trkpt lat="47.0972" lon="-1.23679">
        <ele>35.23</ele>
        <time>2014-04-16T08:19:35Z</time>
      </trkpt>
      <trkpt lat="47.09712" lon="-1.23685">
        <ele>33.78</ele>
        <time>2014-04-16T08:19:47Z</time>
      </trkpt>
      <trkpt lat="47.09707" lon="-1.23697">
        <ele>31.86</ele>
        <time>2014-04-16T08:20:02Z</time>
      </trkpt>
      <trkpt lat="47.09702" lon="-1.23707">
        <ele>28.98</ele>
        <time>2014-04-16T08:20:14Z</time>
      </trkpt>
      <trkpt lat="47.09695" lon="-1.237">
        <ele>25.61</ele>
        <time>2014-04-16T08:20:30Z</time>
      </trkpt>
      <trkpt lat="47.0969" lon="-1.23687">
        <ele>23.21</ele>
        <time>2014-04-16T08:21:11Z</time>
      </trkpt>
      <trkpt lat="47.09682" lon="-1.23673">
        <ele>19.36</ele>
        <time>2014-04-16T08:21:28Z</time>
      </trkpt>
      <trkpt lat="47.09667" lon="-1.23668">
        <ele>16.96</ele>
        <time>2014-04-16T08:21:42Z</time>
      </trkpt>
      <trkpt lat="47.09656" lon="-1.23667">
        <ele>15.52</ele>
        <time>2014-04-16T08:21:51Z</time>
      </trkpt>
      <trkpt lat="47.09646" lon="-1.23659">
        <ele>15.04</ele>
        <time>2014-04-16T08:23:27Z</time>
      </trkpt>
      <trkpt lat="47.09644" lon="-1.23639">
        <ele>15.04</ele>
        <time>2014-04-16T08:24:27Z</time>
      </trkpt>
      <trkpt lat="47.09643" lon="-1.23623">
        <ele>14.08</ele>
        <time>2014-04-16T08:24:36Z</time>
      </trkpt>
      <trkpt lat="47.09642" lon="-1.23606">
        <ele>15.52</ele>
        <time>2014-04-16T08:24:45Z</time>
      </trkpt>
      <trkpt lat="47.09642" lon="-1.23591">
        <ele>16</ele>
        <time>2014-04-16T08:24:53Z</time>
      </trkpt>
      <trkpt lat="47.09642" lon="-1.23575">
        <ele>16</ele>
        <time>2014-04-16T08:25:01Z</time>
      </trkpt>
      <trkpt lat="47.09643" lon="-1.23559">
        <ele>16</ele>
        <time>2014-04-16T08:25:09Z</time>
      </trkpt>
      <trkpt lat="47.09644" lon="-1.23544">
        <ele>16</ele>
        <time>2014-04-16T08:25:18Z</time>
      </trkpt>
      <trkpt lat="47.09645" lon="-1.23528">
        <ele>16</ele>
        <time>2014-04-16T08:25:28Z</time>
      </trkpt>
      <trkpt lat="47.09647" lon="-1.23509">
        <ele>16.48</ele>
        <time>2014-04-16T08:25:38Z</time>
      </trkpt>
      <trkpt lat="47.0965" lon="-1.2349">
        <ele>16.48</ele>
        <time>2014-04-16T08:25:48Z</time>
      </trkpt>
      <trkpt lat="47.09655" lon="-1.23473">
        <ele>16.48</ele>
        <time>2014-04-16T08:25:59Z</time>
      </trkpt>
      <trkpt lat="47.09659" lon="-1.23457">
        <ele>16.48</ele>
        <time>2014-04-16T08:26:07Z</time>
      </trkpt>
      <trkpt lat="47.09664" lon="-1.2344">
        <ele>16.48</ele>
        <time>2014-04-16T08:26:16Z</time>
      </trkpt>
      <trkpt lat="47.09673" lon="-1.23428">
        <ele>16.48</ele>
        <time>2014-04-16T08:26:26Z</time>
      </trkpt>
      <trkpt lat="47.09684" lon="-1.23415">
        <ele>16.48</ele>
        <time>2014-04-16T08:26:38Z</time>
      </trkpt>
      <trkpt lat="47.09694" lon="-1.23405">
        <ele>16.48</ele>
        <time>2014-04-16T08:26:47Z</time>
      </trkpt>
      <trkpt lat="47.09704" lon="-1.23395">
        <ele>16.96</ele>
        <time>2014-04-16T08:26:57Z</time>
      </trkpt>
      <trkpt lat="47.09715" lon="-1.23386">
        <ele>16.96</ele>
        <time>2014-04-16T08:27:07Z</time>
      </trkpt>
      <trkpt lat="47.09726" lon="-1.23377">
        <ele>17.44</ele>
        <time>2014-04-16T08:27:16Z</time>
      </trkpt>
      <trkpt lat="47.09737" lon="-1.23367">
        <ele>17.44</ele>
        <time>2014-04-16T08:27:27Z</time>
      </trkpt>
      <trkpt lat="47.09749" lon="-1.23357">
        <ele>17.44</ele>
        <time>2014-04-16T08:27:40Z</time>
      </trkpt>
      <trkpt lat="47.09765" lon="-1.23348">
        <ele>17.44</ele>
        <time>2014-04-16T08:27:53Z</time>
      </trkpt>
      <trkpt lat="47.09778" lon="-1.23337">
        <ele>16</ele>
        <time>2014-04-16T08:28:04Z</time>
      </trkpt>
      <trkpt lat="47.09793" lon="-1.2333">
        <ele>14.08</ele>
        <time>2014-04-16T08:28:16Z</time>
      </trkpt>
      <trkpt lat="47.09809" lon="-1.2332">
        <ele>14.08</ele>
        <time>2014-04-16T08:28:29Z</time>
      </trkpt>
      <trkpt lat="47.0982" lon="-1.23308">
        <ele>18.88</ele>
        <time>2014-04-16T08:40:03Z</time>
      </trkpt>
      <trkpt lat="47.09822" lon="-1.23279">
        <ele>22.25</ele>
        <time>2014-04-16T08:40:41Z</time>
      </trkpt>
      <trkpt lat="47.09816" lon="-1.23258">
        <ele>19.36</ele>
        <time>2014-04-16T08:41:06Z</time>
      </trkpt>
      <trkpt lat="47.09813" lon="-1.23242">
        <ele>19.36</ele>
        <time>2014-04-16T08:41:15Z</time>
      </trkpt>
      <trkpt lat="47.09812" lon="-1.23227">
        <ele>21.77</ele>
        <time>2014-04-16T08:41:26Z</time>
      </trkpt>
      <trkpt lat="47.09814" lon="-1.23211">
        <ele>23.21</ele>
        <time>2014-04-16T08:41:35Z</time>
      </trkpt>
      <trkpt lat="47.09812" lon="-1.23197">
        <ele>24.17</ele>
        <time>2014-04-16T08:41:46Z</time>
      </trkpt>
      <trkpt lat="47.09812" lon="-1.23182">
        <ele>25.61</ele>
        <time>2014-04-16T08:41:56Z</time>
      </trkpt>
      <trkpt lat="47.09811" lon="-1.23168">
        <ele>27.53</ele>
        <time>2014-04-16T08:42:07Z</time>
      </trkpt>
      <trkpt lat="47.09808" lon="-1.23153">
        <ele>30.42</ele>
        <time>2014-04-16T08:42:18Z</time>
      </trkpt>
      <trkpt lat="47.09805" lon="-1.23139">
        <ele>31.86</ele>
        <time>2014-04-16T08:42:28Z</time>
      </trkpt>
      <trkpt lat="47.09799" lon="-1.23127">
        <ele>33.3</ele>
        <time>2014-04-16T08:42:38Z</time>
      </trkpt>
      <trkpt lat="47.09791" lon="-1.23116">
        <ele>34.74</ele>
        <time>2014-04-16T08:42:48Z</time>
      </trkpt>
      <trkpt lat="47.09782" lon="-1.23107">
        <ele>37.15</ele>
        <time>2014-04-16T08:42:59Z</time>
      </trkpt>
      <trkpt lat="47.09774" lon="-1.23099">
        <ele>39.07</ele>
        <time>2014-04-16T08:43:10Z</time>
      </trkpt>
      <trkpt lat="47.09765" lon="-1.2309">
        <ele>40.99</ele>
        <time>2014-04-16T08:43:21Z</time>
      </trkpt>
      <trkpt lat="47.09758" lon="-1.23081">
        <ele>42.92</ele>
        <time>2014-04-16T08:43:32Z</time>
      </trkpt>
      <trkpt lat="47.0975" lon="-1.23073">
        <ele>44.84</ele>
        <time>2014-04-16T08:43:43Z</time>
      </trkpt>
      <trkpt lat="47.09743" lon="-1.23064">
        <ele>46.76</ele>
        <time>2014-04-16T08:43:55Z</time>
      </trkpt>
      <trkpt lat="47.0974" lon="-1.23051">
        <ele>48.68</ele>
        <time>2014-04-16T08:44:05Z</time>
      </trkpt>
      <trkpt lat="47.09742" lon="-1.23037">
        <ele>50.13</ele>
        <time>2014-04-16T08:44:15Z</time>
      </trkpt>
      <trkpt lat="47.09746" lon="-1.23024">
        <ele>52.05</ele>
        <time>2014-04-16T08:44:25Z</time>
      </trkpt>
      <trkpt lat="47.0975" lon="-1.23012">
        <ele>53.01</ele>
        <time>2014-04-16T08:44:33Z</time>
      </trkpt>
      <trkpt lat="47.09754" lon="-1.22999">
        <ele>54.93</ele>
        <time>2014-04-16T08:44:42Z</time>
      </trkpt>
      <trkpt lat="47.09758" lon="-1.22986">
        <ele>55.41</ele>
        <time>2014-04-16T08:44:50Z</time>
      </trkpt>
      <trkpt lat="47.09763" lon="-1.22974">
        <ele>56.37</ele>
        <time>2014-04-16T08:44:58Z</time>
      </trkpt>
      <trkpt lat="47.09765" lon="-1.22961">
        <ele>56.86</ele>
        <time>2014-04-16T08:45:05Z</time>
      </trkpt>
      <trkpt lat="47.09757" lon="-1.2295">
        <ele>57.82</ele>
        <time>2014-04-16T08:45:15Z</time>
      </trkpt>
      <trkpt lat="47.09748" lon="-1.22943">
        <ele>57.82</ele>
        <time>2014-04-16T08:45:23Z</time>
      </trkpt>
      <trkpt lat="47.09739" lon="-1.22938">
        <ele>58.78</ele>
        <time>2014-04-16T08:45:31Z</time>
      </trkpt>
      <trkpt lat="47.09729" lon="-1.22933">
        <ele>59.26</ele>
        <time>2014-04-16T08:45:39Z</time>
      </trkpt>
      <trkpt lat="47.09719" lon="-1.22928">
        <ele>59.74</ele>
        <time>2014-04-16T08:45:47Z</time>
      </trkpt>
      <trkpt lat="47.0971" lon="-1.22924">
        <ele>59.74</ele>
        <time>2014-04-16T08:45:55Z</time>
      </trkpt>
      <trkpt lat="47.09701" lon="-1.22922">
        <ele>59.74</ele>
        <time>2014-04-16T08:46:03Z</time>
      </trkpt>
      <trkpt lat="47.09691" lon="-1.2292">
        <ele>59.74</ele>
        <time>2014-04-16T08:46:10Z</time>
      </trkpt>
      <trkpt lat="47.09681" lon="-1.2292">
        <ele>60.22</ele>
        <time>2014-04-16T08:46:18Z</time>
      </trkpt>
      <trkpt lat="47.09673" lon="-1.22915">
        <ele>60.7</ele>
        <time>2014-04-16T08:46:27Z</time>
      </trkpt>
      <trkpt lat="47.09664" lon="-1.22908">
        <ele>60.7</ele>
        <time>2014-04-16T08:46:35Z</time>
      </trkpt>
      <trkpt lat="47.09654" lon="-1.22898">
        <ele>61.18</ele>
        <time>2014-04-16T08:46:44Z</time>
      </trkpt>
      <trkpt lat="47.09646" lon="-1.22888">
        <ele>61.66</ele>
        <time>2014-04-16T08:46:53Z</time>
      </trkpt>
      <trkpt lat="47.09638" lon="-1.22878">
        <ele>61.66</ele>
        <time>2014-04-16T08:47:01Z</time>
      </trkpt>
      <trkpt lat="47.09629" lon="-1.22871">
        <ele>61.66</ele>
        <time>2014-04-16T08:47:09Z</time>
      </trkpt>
      <trkpt lat="47.09625" lon="-1.22858">
        <ele>60.22</ele>
        <time>2014-04-16T08:47:18Z</time>
      </trkpt>
      <trkpt lat="47.09623" lon="-1.22842">
        <ele>61.66</ele>
        <time>2014-04-16T08:47:26Z</time>
      </trkpt>
      <trkpt lat="47.09616" lon="-1.22832">
        <ele>61.66</ele>
        <time>2014-04-16T08:47:33Z</time>
      </trkpt>
      <trkpt lat="47.09607" lon="-1.22827">
        <ele>61.66</ele>
        <time>2014-04-16T08:47:40Z</time>
      </trkpt>
      <trkpt lat="47.09597" lon="-1.22823">
        <ele>61.66</ele>
        <time>2014-04-16T08:47:47Z</time>
      </trkpt>
      <trkpt lat="47.09588" lon="-1.22819">
        <ele>61.66</ele>
        <time>2014-04-16T08:47:54Z</time>
      </trkpt>
      <trkpt lat="47.09579" lon="-1.22816">
        <ele>61.66</ele>
        <time>2014-04-16T08:48:01Z</time>
      </trkpt>
      <trkpt lat="47.0957" lon="-1.22813">
        <ele>61.66</ele>
        <time>2014-04-16T08:48:08Z</time>
      </trkpt>
      <trkpt lat="47.09561" lon="-1.22809">
        <ele>62.14</ele>
        <time>2014-04-16T08:48:15Z</time>
      </trkpt>
      <trkpt lat="47.09552" lon="-1.22806">
        <ele>62.14</ele>
        <time>2014-04-16T08:48:22Z</time>
      </trkpt>
      <trkpt lat="47.09543" lon="-1.22802">
        <ele>62.14</ele>
        <time>2014-04-16T08:48:29Z</time>
      </trkpt>
      <trkpt lat="47.09534" lon="-1.228">
        <ele>62.14</ele>
        <time>2014-04-16T08:48:36Z</time>
      </trkpt>
      <trkpt lat="47.09523" lon="-1.22797">
        <ele>62.14</ele>
        <time>2014-04-16T08:48:44Z</time>
      </trkpt>
      <trkpt lat="47.09514" lon="-1.22793">
        <ele>62.14</ele>
        <time>2014-04-16T08:48:51Z</time>
      </trkpt>
      <trkpt lat="47.09504" lon="-1.2279">
        <ele>62.14</ele>
        <time>2014-04-16T08:48:58Z</time>
      </trkpt>
      <trkpt lat="47.09495" lon="-1.22786">
        <ele>62.14</ele>
        <time>2014-04-16T08:49:05Z</time>
      </trkpt>
      <trkpt lat="47.09486" lon="-1.22783">
        <ele>62.14</ele>
        <time>2014-04-16T08:49:12Z</time>
      </trkpt>
      <trkpt lat="47.09476" lon="-1.2278">
        <ele>62.14</ele>
        <time>2014-04-16T08:49:19Z</time>
      </trkpt>
      <trkpt lat="47.09467" lon="-1.22776">
        <ele>62.14</ele>
        <time>2014-04-16T08:49:26Z</time>
      </trkpt>
      <trkpt lat="47.09457" lon="-1.22773">
        <ele>62.14</ele>
        <time>2014-04-16T08:49:33Z</time>
      </trkpt>
      <trkpt lat="47.09447" lon="-1.2277">
        <ele>62.14</ele>
        <time>2014-04-16T08:49:40Z</time>
      </trkpt>
      <trkpt lat="47.09438" lon="-1.22766">
        <ele>62.14</ele>
        <time>2014-04-16T08:49:47Z</time>
      </trkpt>
      <trkpt lat="47.09429" lon="-1.22764">
        <ele>62.14</ele>
        <time>2014-04-16T08:49:54Z</time>
      </trkpt>
      <trkpt lat="47.09419" lon="-1.22761">
        <ele>62.14</ele>
        <time>2014-04-16T08:50:01Z</time>
      </trkpt>
      <trkpt lat="47.0941" lon="-1.22757">
        <ele>62.14</ele>
        <time>2014-04-16T08:50:08Z</time>
      </trkpt>
      <trkpt lat="47.094" lon="-1.22754">
        <ele>62.14</ele>
        <time>2014-04-16T08:50:15Z</time>
      </trkpt>
      <trkpt lat="47.09391" lon="-1.22754">
        <ele>62.14</ele>
        <time>2014-04-16T08:50:23Z</time>
      </trkpt>
      <trkpt lat="47.09386" lon="-1.22763">
        <ele>62.14</ele>
        <time>2014-04-16T08:50:37Z</time>
      </trkpt>
      <trkpt lat="47.09382" lon="-1.22777">
        <ele>62.14</ele>
        <time>2014-04-16T08:50:45Z</time>
      </trkpt>
      <trkpt lat="47.09379" lon="-1.2279">
        <ele>60.7</ele>
        <time>2014-04-16T08:50:53Z</time>
      </trkpt>
      <trkpt lat="47.09375" lon="-1.22804">
        <ele>60.7</ele>
        <time>2014-04-16T08:51:00Z</time>
      </trkpt>
      <trkpt lat="47.09371" lon="-1.22818">
        <ele>60.7</ele>
        <time>2014-04-16T08:51:08Z</time>
      </trkpt>
      <trkpt lat="47.09368" lon="-1.22832">
        <ele>60.7</ele>
        <time>2014-04-16T08:51:15Z</time>
      </trkpt>
      <trkpt lat="47.09364" lon="-1.22847">
        <ele>60.7</ele>
        <time>2014-04-16T08:51:23Z</time>
      </trkpt>
      <trkpt lat="47.09361" lon="-1.22861">
        <ele>60.7</ele>
        <time>2014-04-16T08:51:30Z</time>
      </trkpt>
      <trkpt lat="47.09357" lon="-1.22874">
        <ele>60.22</ele>
        <time>2014-04-16T08:51:37Z</time>
      </trkpt>
      <trkpt lat="47.09354" lon="-1.22887">
        <ele>60.22</ele>
        <time>2014-04-16T08:51:44Z</time>
      </trkpt>
      <trkpt lat="47.0935" lon="-1.229">
        <ele>60.22</ele>
        <time>2014-04-16T08:51:53Z</time>
      </trkpt>
      <trkpt lat="47.09348" lon="-1.22914">
        <ele>59.74</ele>
        <time>2014-04-16T08:51:59Z</time>
      </trkpt>
      <trkpt lat="47.09346" lon="-1.22929">
        <ele>59.74</ele>
        <time>2014-04-16T08:52:05Z</time>
      </trkpt>
      <trkpt lat="47.09345" lon="-1.22944">
        <ele>59.74</ele>
        <time>2014-04-16T08:52:12Z</time>
      </trkpt>
      <trkpt lat="47.09346" lon="-1.22957">
        <ele>59.26</ele>
        <time>2014-04-16T08:52:18Z</time>
      </trkpt>
      <trkpt lat="47.09348" lon="-1.22972">
        <ele>59.26</ele>
        <time>2014-04-16T08:52:25Z</time>
      </trkpt>
      <trkpt lat="47.0935" lon="-1.22987">
        <ele>58.78</ele>
        <time>2014-04-16T08:52:32Z</time>
      </trkpt>
      <trkpt lat="47.09353" lon="-1.23">
        <ele>58.78</ele>
        <time>2014-04-16T08:52:38Z</time>
      </trkpt>
      <trkpt lat="47.09356" lon="-1.23014">
        <ele>58.78</ele>
        <time>2014-04-16T08:52:45Z</time>
      </trkpt>
      <trkpt lat="47.0936" lon="-1.23025">
        <ele>58.78</ele>
        <time>2014-04-16T08:52:51Z</time>
      </trkpt>
      <trkpt lat="47.09363" lon="-1.23039">
        <ele>58.3</ele>
        <time>2014-04-16T08:52:58Z</time>
      </trkpt>
      <trkpt lat="47.09368" lon="-1.23053">
        <ele>58.3</ele>
        <time>2014-04-16T08:53:05Z</time>
      </trkpt>
      <trkpt lat="47.09371" lon="-1.23067">
        <ele>57.82</ele>
        <time>2014-04-16T08:53:12Z</time>
      </trkpt>
      <trkpt lat="47.09375" lon="-1.2308">
        <ele>57.82</ele>
        <time>2014-04-16T08:53:19Z</time>
      </trkpt>
      <trkpt lat="47.09379" lon="-1.23093">
        <ele>57.34</ele>
        <time>2014-04-16T08:53:26Z</time>
      </trkpt>
      <trkpt lat="47.09383" lon="-1.23107">
        <ele>57.34</ele>
        <time>2014-04-16T08:53:33Z</time>
      </trkpt>
      <trkpt lat="47.09386" lon="-1.23121">
        <ele>57.34</ele>
        <time>2014-04-16T08:53:40Z</time>
      </trkpt>
      <trkpt lat="47.0939" lon="-1.23134">
        <ele>56.86</ele>
        <time>2014-04-16T08:53:48Z</time>
      </trkpt>
      <trkpt lat="47.09394" lon="-1.23148">
        <ele>56.37</ele>
        <time>2014-04-16T08:53:55Z</time>
      </trkpt>
      <trkpt lat="47.09397" lon="-1.23161">
        <ele>56.37</ele>
        <time>2014-04-16T08:54:03Z</time>
      </trkpt>
      <trkpt lat="47.09403" lon="-1.23174">
        <ele>55.89</ele>
        <time>2014-04-16T08:54:10Z</time>
      </trkpt>
      <trkpt lat="47.09406" lon="-1.23188">
        <ele>55.41</ele>
        <time>2014-04-16T08:54:18Z</time>
      </trkpt>
      <trkpt lat="47.09409" lon="-1.23202">
        <ele>54.93</ele>
        <time>2014-04-16T08:54:25Z</time>
      </trkpt>
      <trkpt lat="47.09413" lon="-1.23215">
        <ele>54.93</ele>
        <time>2014-04-16T08:54:32Z</time>
      </trkpt>
      <trkpt lat="47.09416" lon="-1.23228">
        <ele>54.45</ele>
        <time>2014-04-16T08:54:39Z</time>
      </trkpt>
      <trkpt lat="47.0942" lon="-1.23242">
        <ele>53.97</ele>
        <time>2014-04-16T08:54:47Z</time>
      </trkpt>
      <trkpt lat="47.09423" lon="-1.23257">
        <ele>53.97</ele>
        <time>2014-04-16T08:54:54Z</time>
      </trkpt>
      <trkpt lat="47.09426" lon="-1.2327">
        <ele>53.97</ele>
        <time>2014-04-16T08:55:02Z</time>
      </trkpt>
      <trkpt lat="47.09429" lon="-1.23285">
        <ele>53.49</ele>
        <time>2014-04-16T08:55:10Z</time>
      </trkpt>
      <trkpt lat="47.09433" lon="-1.23299">
        <ele>53.01</ele>
        <time>2014-04-16T08:55:17Z</time>
      </trkpt>
      <trkpt lat="47.09436" lon="-1.23313">
        <ele>52.53</ele>
        <time>2014-04-16T08:55:25Z</time>
      </trkpt>
      <trkpt lat="47.09439" lon="-1.23327">
        <ele>52.53</ele>
        <time>2014-04-16T08:55:33Z</time>
      </trkpt>
      <trkpt lat="47.09441" lon="-1.23342">
        <ele>52.05</ele>
        <time>2014-04-16T08:55:41Z</time>
      </trkpt>
      <trkpt lat="47.09444" lon="-1.23356">
        <ele>51.57</ele>
        <time>2014-04-16T08:55:48Z</time>
      </trkpt>
      <trkpt lat="47.09446" lon="-1.23369">
        <ele>51.57</ele>
        <time>2014-04-16T08:55:55Z</time>
      </trkpt>
      <trkpt lat="47.09449" lon="-1.23384">
        <ele>51.57</ele>
        <time>2014-04-16T08:56:03Z</time>
      </trkpt>
      <trkpt lat="47.09451" lon="-1.23398">
        <ele>51.09</ele>
        <time>2014-04-16T08:56:10Z</time>
      </trkpt>
      <trkpt lat="47.09454" lon="-1.23411">
        <ele>50.61</ele>
        <time>2014-04-16T08:56:17Z</time>
      </trkpt>
      <trkpt lat="47.09456" lon="-1.23424">
        <ele>50.13</ele>
        <time>2014-04-16T08:56:24Z</time>
      </trkpt>
      <trkpt lat="47.09458" lon="-1.2344">
        <ele>49.65</ele>
        <time>2014-04-16T08:56:31Z</time>
      </trkpt>
      <trkpt lat="47.09459" lon="-1.23454">
        <ele>49.65</ele>
        <time>2014-04-16T08:56:38Z</time>
      </trkpt>
      <trkpt lat="47.0946" lon="-1.23468">
        <ele>49.16</ele>
        <time>2014-04-16T08:56:45Z</time>
      </trkpt>
      <trkpt lat="47.0946" lon="-1.23481">
        <ele>49.16</ele>
        <time>2014-04-16T08:56:52Z</time>
      </trkpt>
      <trkpt lat="47.0946" lon="-1.23496">
        <ele>49.16</ele>
        <time>2014-04-16T08:56:59Z</time>
      </trkpt>
      <trkpt lat="47.09459" lon="-1.23512">
        <ele>48.68</ele>
        <time>2014-04-16T08:57:07Z</time>
      </trkpt>
      <trkpt lat="47.09456" lon="-1.23526">
        <ele>48.2</ele>
        <time>2014-04-16T08:57:14Z</time>
      </trkpt>
      <trkpt lat="47.09452" lon="-1.2354">
        <ele>48.2</ele>
        <time>2014-04-16T08:57:21Z</time>
      </trkpt>
      <trkpt lat="47.09446" lon="-1.23554">
        <ele>47.72</ele>
        <time>2014-04-16T08:57:29Z</time>
      </trkpt>
      <trkpt lat="47.09441" lon="-1.23568">
        <ele>47.24</ele>
        <time>2014-04-16T08:57:37Z</time>
      </trkpt>
      <trkpt lat="47.09435" lon="-1.23582">
        <ele>46.28</ele>
        <time>2014-04-16T08:57:45Z</time>
      </trkpt>
      <trkpt lat="47.0943" lon="-1.23596">
        <ele>46.28</ele>
        <time>2014-04-16T08:57:52Z</time>
      </trkpt>
      <trkpt lat="47.09427" lon="-1.2361">
        <ele>45.8</ele>
        <time>2014-04-16T08:57:59Z</time>
      </trkpt>
      <trkpt lat="47.09424" lon="-1.23624">
        <ele>45.8</ele>
        <time>2014-04-16T08:58:06Z</time>
      </trkpt>
      <trkpt lat="47.09423" lon="-1.23639">
        <ele>45.8</ele>
        <time>2014-04-16T08:58:14Z</time>
      </trkpt>
      <trkpt lat="47.09421" lon="-1.23652">
        <ele>45.8</ele>
        <time>2014-04-16T08:58:21Z</time>
      </trkpt>
      <trkpt lat="47.09419" lon="-1.23667">
        <ele>45.8</ele>
        <time>2014-04-16T08:58:28Z</time>
      </trkpt>
      <trkpt lat="47.09416" lon="-1.23681">
        <ele>45.8</ele>
        <time>2014-04-16T08:58:35Z</time>
      </trkpt>
      <trkpt lat="47.09413" lon="-1.23694">
        <ele>47.24</ele>
        <time>2014-04-16T08:58:42Z</time>
      </trkpt>
      <trkpt lat="47.0941" lon="-1.23708">
        <ele>47.24</ele>
        <time>2014-04-16T08:58:50Z</time>
      </trkpt>
      <trkpt lat="47.09406" lon="-1.23723">
        <ele>47.72</ele>
        <time>2014-04-16T08:58:57Z</time>
      </trkpt>
      <trkpt lat="47.09403" lon="-1.23737">
        <ele>47.72</ele>
        <time>2014-04-16T08:59:05Z</time>
      </trkpt>
      <trkpt lat="47.094" lon="-1.23752">
        <ele>47.72</ele>
        <time>2014-04-16T08:59:13Z</time>
      </trkpt>
      <trkpt lat="47.09397" lon="-1.23765">
        <ele>47.72</ele>
        <time>2014-04-16T08:59:20Z</time>
      </trkpt>
      <trkpt lat="47.09396" lon="-1.2378">
        <ele>47.72</ele>
        <time>2014-04-16T08:59:28Z</time>
      </trkpt>
      <trkpt lat="47.09396" lon="-1.23793">
        <ele>47.72</ele>
        <time>2014-04-16T08:59:36Z</time>
      </trkpt>
      <trkpt lat="47.09394" lon="-1.23807">
        <ele>48.2</ele>
        <time>2014-04-16T08:59:44Z</time>
      </trkpt>
      <trkpt lat="47.09391" lon="-1.23821">
        <ele>48.2</ele>
        <time>2014-04-16T08:59:52Z</time>
      </trkpt>
      <trkpt lat="47.09387" lon="-1.23836">
        <ele>48.2</ele>
        <time>2014-04-16T09:00:00Z</time>
      </trkpt>
      <trkpt lat="47.09384" lon="-1.23849">
        <ele>48.2</ele>
        <time>2014-04-16T09:00:07Z</time>
      </trkpt>
      <trkpt lat="47.09381" lon="-1.23863">
        <ele>48.2</ele>
        <time>2014-04-16T09:00:15Z</time>
      </trkpt>
      <trkpt lat="47.09378" lon="-1.23876">
        <ele>46.76</ele>
        <time>2014-04-16T09:00:24Z</time>
      </trkpt>
      <trkpt lat="47.09374" lon="-1.23891">
        <ele>46.28</ele>
        <time>2014-04-16T09:00:33Z</time>
      </trkpt>
      <trkpt lat="47.09369" lon="-1.23906">
        <ele>45.8</ele>
        <time>2014-04-16T09:00:41Z</time>
      </trkpt>
      <trkpt lat="47.09365" lon="-1.23921">
        <ele>44.84</ele>
        <time>2014-04-16T09:00:49Z</time>
      </trkpt>
      <trkpt lat="47.09361" lon="-1.23935">
        <ele>44.36</ele>
        <time>2014-04-16T09:00:57Z</time>
      </trkpt>
      <trkpt lat="47.09358" lon="-1.23948">
        <ele>43.88</ele>
        <time>2014-04-16T09:01:04Z</time>
      </trkpt>
      <trkpt lat="47.09356" lon="-1.23963">
        <ele>43.88</ele>
        <time>2014-04-16T09:01:12Z</time>
      </trkpt>
      <trkpt lat="47.09354" lon="-1.23978">
        <ele>43.88</ele>
        <time>2014-04-16T09:01:20Z</time>
      </trkpt>
      <trkpt lat="47.09353" lon="-1.23995">
        <ele>43.88</ele>
        <time>2014-04-16T09:01:28Z</time>
      </trkpt>
      <trkpt lat="47.09351" lon="-1.24011">
        <ele>43.4</ele>
        <time>2014-04-16T09:01:36Z</time>
      </trkpt>
      <trkpt lat="47.0935" lon="-1.24026">
        <ele>43.4</ele>
        <time>2014-04-16T09:01:44Z</time>
      </trkpt>
      <trkpt lat="47.09353" lon="-1.24042">
        <ele>44.84</ele>
        <time>2014-04-16T09:01:53Z</time>
      </trkpt>
      <trkpt lat="47.09357" lon="-1.24058">
        <ele>45.32</ele>
        <time>2014-04-16T09:02:02Z</time>
      </trkpt>
      <trkpt lat="47.09359" lon="-1.24075">
        <ele>45.32</ele>
        <time>2014-04-16T09:02:11Z</time>
      </trkpt>
      <trkpt lat="47.09361" lon="-1.24091">
        <ele>44.36</ele>
        <time>2014-04-16T09:02:19Z</time>
      </trkpt>
      <trkpt lat="47.09359" lon="-1.24107">
        <ele>43.88</ele>
        <time>2014-04-16T09:02:27Z</time>
      </trkpt>
      <trkpt lat="47.09358" lon="-1.24123">
        <ele>43.4</ele>
        <time>2014-04-16T09:02:35Z</time>
      </trkpt>
      <trkpt lat="47.09358" lon="-1.24139">
        <ele>43.4</ele>
        <time>2014-04-16T09:02:44Z</time>
      </trkpt>
      <trkpt lat="47.09358" lon="-1.24155">
        <ele>42.92</ele>
        <time>2014-04-16T09:02:51Z</time>
      </trkpt>
      <trkpt lat="47.09355" lon="-1.24173">
        <ele>42.44</ele>
        <time>2014-04-16T09:02:59Z</time>
      </trkpt>
      <trkpt lat="47.09352" lon="-1.24189">
        <ele>41.95</ele>
        <time>2014-04-16T09:03:07Z</time>
      </trkpt>
      <trkpt lat="47.09349" lon="-1.24205">
        <ele>41.47</ele>
        <time>2014-04-16T09:03:15Z</time>
      </trkpt>
      <trkpt lat="47.09343" lon="-1.24219">
        <ele>40.99</ele>
        <time>2014-04-16T09:03:25Z</time>
      </trkpt>
      <trkpt lat="47.09338" lon="-1.24233">
        <ele>40.51</ele>
        <time>2014-04-16T09:03:33Z</time>
      </trkpt>
      <trkpt lat="47.09335" lon="-1.24247">
        <ele>39.55</ele>
        <time>2014-04-16T09:03:41Z</time>
      </trkpt>
      <trkpt lat="47.09333" lon="-1.24261">
        <ele>38.59</ele>
        <time>2014-04-16T09:03:48Z</time>
      </trkpt>
      <trkpt lat="47.0933" lon="-1.24274">
        <ele>37.63</ele>
        <time>2014-04-16T09:03:55Z</time>
      </trkpt>
      <trkpt lat="47.09328" lon="-1.24289">
        <ele>36.67</ele>
        <time>2014-04-16T09:04:02Z</time>
      </trkpt>
      <trkpt lat="47.09327" lon="-1.24304">
        <ele>35.71</ele>
        <time>2014-04-16T09:04:09Z</time>
      </trkpt>
      <trkpt lat="47.09326" lon="-1.24319">
        <ele>35.23</ele>
        <time>2014-04-16T09:04:16Z</time>
      </trkpt>
      <trkpt lat="47.09327" lon="-1.24335">
        <ele>34.74</ele>
        <time>2014-04-16T09:04:25Z</time>
      </trkpt>
      <trkpt lat="47.09326" lon="-1.2435">
        <ele>34.74</ele>
        <time>2014-04-16T09:04:32Z</time>
      </trkpt>
      <trkpt lat="47.09327" lon="-1.24366">
        <ele>34.26</ele>
        <time>2014-04-16T09:04:41Z</time>
      </trkpt>
      <trkpt lat="47.09328" lon="-1.24382">
        <ele>34.26</ele>
        <time>2014-04-16T09:04:49Z</time>
      </trkpt>
      <trkpt lat="47.09327" lon="-1.24399">
        <ele>35.71</ele>
        <time>2014-04-16T09:04:58Z</time>
      </trkpt>
      <trkpt lat="47.09327" lon="-1.24415">
        <ele>36.67</ele>
        <time>2014-04-16T09:05:06Z</time>
      </trkpt>
      <trkpt lat="47.09326" lon="-1.24432">
        <ele>36.67</ele>
        <time>2014-04-16T09:05:14Z</time>
      </trkpt>
      <trkpt lat="47.09326" lon="-1.24449">
        <ele>37.15</ele>
        <time>2014-04-16T09:05:21Z</time>
      </trkpt>
      <trkpt lat="47.09325" lon="-1.24464">
        <ele>37.15</ele>
        <time>2014-04-16T09:05:28Z</time>
      </trkpt>
      <trkpt lat="47.09325" lon="-1.24479">
        <ele>37.15</ele>
        <time>2014-04-16T09:05:35Z</time>
      </trkpt>
      <trkpt lat="47.09326" lon="-1.24493">
        <ele>37.15</ele>
        <time>2014-04-16T09:05:42Z</time>
      </trkpt>
      <trkpt lat="47.09326" lon="-1.24507">
        <ele>37.15</ele>
        <time>2014-04-16T09:05:49Z</time>
      </trkpt>
      <trkpt lat="47.09326" lon="-1.24522">
        <ele>37.15</ele>
        <time>2014-04-16T09:05:57Z</time>
      </trkpt>
      <trkpt lat="47.09325" lon="-1.24539">
        <ele>37.15</ele>
        <time>2014-04-16T09:06:06Z</time>
      </trkpt>
      <trkpt lat="47.09322" lon="-1.24556">
        <ele>37.15</ele>
        <time>2014-04-16T09:06:15Z</time>
      </trkpt>
      <trkpt lat="47.09319" lon="-1.24573">
        <ele>37.15</ele>
        <time>2014-04-16T09:06:24Z</time>
      </trkpt>
      <trkpt lat="47.09316" lon="-1.24589">
        <ele>37.15</ele>
        <time>2014-04-16T09:06:32Z</time>
      </trkpt>
      <trkpt lat="47.09312" lon="-1.24607">
        <ele>37.15</ele>
        <time>2014-04-16T09:06:41Z</time>
      </trkpt>
      <trkpt lat="47.09309" lon="-1.24624">
        <ele>36.19</ele>
        <time>2014-04-16T09:06:49Z</time>
      </trkpt>
      <trkpt lat="47.09307" lon="-1.24639">
        <ele>36.19</ele>
        <time>2014-04-16T09:06:58Z</time>
      </trkpt>
      <trkpt lat="47.09315" lon="-1.24649">
        <ele>36.19</ele>
        <time>2014-04-16T09:07:07Z</time>
      </trkpt>
      <trkpt lat="47.09324" lon="-1.24658">
        <ele>36.19</ele>
        <time>2014-04-16T09:07:15Z</time>
      </trkpt>
      <trkpt lat="47.09333" lon="-1.24666">
        <ele>35.23</ele>
        <time>2014-04-16T09:07:22Z</time>
      </trkpt>
      <trkpt lat="47.09343" lon="-1.24673">
        <ele>35.23</ele>
        <time>2014-04-16T09:07:30Z</time>
      </trkpt>
      <trkpt lat="47.09354" lon="-1.2468">
        <ele>35.23</ele>
        <time>2014-04-16T09:07:38Z</time>
      </trkpt>
      <trkpt lat="47.09362" lon="-1.24687">
        <ele>34.74</ele>
        <time>2014-04-16T09:07:45Z</time>
      </trkpt>
      <trkpt lat="47.09371" lon="-1.24693">
        <ele>34.26</ele>
        <time>2014-04-16T09:07:52Z</time>
      </trkpt>
      <trkpt lat="47.0938" lon="-1.24699">
        <ele>33.78</ele>
        <time>2014-04-16T09:07:59Z</time>
      </trkpt>
      <trkpt lat="47.0939" lon="-1.24706">
        <ele>33.78</ele>
        <time>2014-04-16T09:08:06Z</time>
      </trkpt>
      <trkpt lat="47.09399" lon="-1.24714">
        <ele>33.3</ele>
        <time>2014-04-16T09:08:13Z</time>
      </trkpt>
      <trkpt lat="47.09407" lon="-1.24721">
        <ele>32.82</ele>
        <time>2014-04-16T09:08:20Z</time>
      </trkpt>
      <trkpt lat="47.09416" lon="-1.24727">
        <ele>32.82</ele>
        <time>2014-04-16T09:08:27Z</time>
      </trkpt>
      <trkpt lat="47.09425" lon="-1.24731">
        <ele>32.34</ele>
        <time>2014-04-16T09:08:34Z</time>
      </trkpt>
      <trkpt lat="47.09434" lon="-1.24736">
        <ele>31.86</ele>
        <time>2014-04-16T09:08:41Z</time>
      </trkpt>
      <trkpt lat="47.09443" lon="-1.24742">
        <ele>31.86</ele>
        <time>2014-04-16T09:08:48Z</time>
      </trkpt>
      <trkpt lat="47.09452" lon="-1.24745">
        <ele>31.38</ele>
        <time>2014-04-16T09:08:55Z</time>
      </trkpt>
      <trkpt lat="47.09461" lon="-1.2475">
        <ele>31.38</ele>
        <time>2014-04-16T09:09:02Z</time>
      </trkpt>
      <trkpt lat="47.09468" lon="-1.24758">
        <ele>31.38</ele>
        <time>2014-04-16T09:09:09Z</time>
      </trkpt>
      <trkpt lat="47.09467" lon="-1.24772">
        <ele>31.38</ele>
        <time>2014-04-16T09:09:16Z</time>
      </trkpt>
      <trkpt lat="47.09463" lon="-1.24786">
        <ele>30.9</ele>
        <time>2014-04-16T09:09:24Z</time>
      </trkpt>
      <trkpt lat="47.09459" lon="-1.248">
        <ele>30.42</ele>
        <time>2014-04-16T09:09:31Z</time>
      </trkpt>
      <trkpt lat="47.09455" lon="-1.24812">
        <ele>30.42</ele>
        <time>2014-04-16T09:09:38Z</time>
      </trkpt>
      <trkpt lat="47.0945" lon="-1.24825">
        <ele>29.94</ele>
        <time>2014-04-16T09:09:45Z</time>
      </trkpt>
      <trkpt lat="47.09446" lon="-1.24838">
        <ele>29.46</ele>
        <time>2014-04-16T09:09:52Z</time>
      </trkpt>
      <trkpt lat="47.09441" lon="-1.24851">
        <ele>29.46</ele>
        <time>2014-04-16T09:09:59Z</time>
      </trkpt>
      <trkpt lat="47.09438" lon="-1.24864">
        <ele>29.46</ele>
        <time>2014-04-16T09:10:06Z</time>
      </trkpt>
      <trkpt lat="47.09433" lon="-1.24878">
        <ele>29.46</ele>
        <time>2014-04-16T09:10:13Z</time>
      </trkpt>
      <trkpt lat="47.0943" lon="-1.24891">
        <ele>29.46</ele>
        <time>2014-04-16T09:10:20Z</time>
      </trkpt>
      <trkpt lat="47.09426" lon="-1.24904">
        <ele>29.46</ele>
        <time>2014-04-16T09:10:27Z</time>
      </trkpt>
      <trkpt lat="47.09422" lon="-1.24918">
        <ele>29.46</ele>
        <time>2014-04-16T09:10:34Z</time>
      </trkpt>
      <trkpt lat="47.09418" lon="-1.24931">
        <ele>29.46</ele>
        <time>2014-04-16T09:10:41Z</time>
      </trkpt>
      <trkpt lat="47.09415" lon="-1.24946">
        <ele>29.46</ele>
        <time>2014-04-16T09:10:48Z</time>
      </trkpt>
      <trkpt lat="47.0941" lon="-1.2496">
        <ele>30.9</ele>
        <time>2014-04-16T09:10:56Z</time>
      </trkpt>
      <trkpt lat="47.09406" lon="-1.24973">
        <ele>31.38</ele>
        <time>2014-04-16T09:11:03Z</time>
      </trkpt>
      <trkpt lat="47.09403" lon="-1.24986">
        <ele>32.34</ele>
        <time>2014-04-16T09:11:10Z</time>
      </trkpt>
      <trkpt lat="47.094" lon="-1.25">
        <ele>32.82</ele>
        <time>2014-04-16T09:11:17Z</time>
      </trkpt>
      <trkpt lat="47.09396" lon="-1.25014">
        <ele>33.3</ele>
        <time>2014-04-16T09:11:25Z</time>
      </trkpt>
      <trkpt lat="47.09393" lon="-1.25027">
        <ele>34.26</ele>
        <time>2014-04-16T09:11:32Z</time>
      </trkpt>
      <trkpt lat="47.09389" lon="-1.25041">
        <ele>34.74</ele>
        <time>2014-04-16T09:11:39Z</time>
      </trkpt>
      <trkpt lat="47.09387" lon="-1.25056">
        <ele>34.74</ele>
        <time>2014-04-16T09:11:46Z</time>
      </trkpt>
      <trkpt lat="47.09384" lon="-1.25069">
        <ele>34.74</ele>
        <time>2014-04-16T09:11:53Z</time>
      </trkpt>
      <trkpt lat="47.09381" lon="-1.25083">
        <ele>36.19</ele>
        <time>2014-04-16T09:12:00Z</time>
      </trkpt>
      <trkpt lat="47.09378" lon="-1.25097">
        <ele>36.19</ele>
        <time>2014-04-16T09:12:07Z</time>
      </trkpt>
      <trkpt lat="47.09376" lon="-1.25111">
        <ele>36.19</ele>
        <time>2014-04-16T09:12:14Z</time>
      </trkpt>
      <trkpt lat="47.09375" lon="-1.25125">
        <ele>36.19</ele>
        <time>2014-04-16T09:12:21Z</time>
      </trkpt>
      <trkpt lat="47.09372" lon="-1.25138">
        <ele>36.19</ele>
        <time>2014-04-16T09:12:28Z</time>
      </trkpt>
      <trkpt lat="47.0937" lon="-1.25153">
        <ele>36.19</ele>
        <time>2014-04-16T09:12:35Z</time>
      </trkpt>
      <trkpt lat="47.0937" lon="-1.25167">
        <ele>34.74</ele>
        <time>2014-04-16T09:12:42Z</time>
      </trkpt>
      <trkpt lat="47.09369" lon="-1.25183">
        <ele>34.74</ele>
        <time>2014-04-16T09:12:49Z</time>
      </trkpt>
      <trkpt lat="47.09369" lon="-1.25197">
        <ele>34.26</ele>
        <time>2014-04-16T09:12:56Z</time>
      </trkpt>
      <trkpt lat="47.09369" lon="-1.25211">
        <ele>34.26</ele>
        <time>2014-04-16T09:13:03Z</time>
      </trkpt>
      <trkpt lat="47.09369" lon="-1.25226">
        <ele>34.26</ele>
        <time>2014-04-16T09:13:10Z</time>
      </trkpt>
      <trkpt lat="47.0937" lon="-1.2524">
        <ele>33.78</ele>
        <time>2014-04-16T09:13:17Z</time>
      </trkpt>
      <trkpt lat="47.09371" lon="-1.25256">
        <ele>33.3</ele>
        <time>2014-04-16T09:13:24Z</time>
      </trkpt>
      <trkpt lat="47.09371" lon="-1.25271">
        <ele>33.3</ele>
        <time>2014-04-16T09:13:31Z</time>
      </trkpt>
      <trkpt lat="47.09371" lon="-1.25286">
        <ele>32.82</ele>
        <time>2014-04-16T09:13:38Z</time>
      </trkpt>
      <trkpt lat="47.0937" lon="-1.25301">
        <ele>32.82</ele>
        <time>2014-04-16T09:13:45Z</time>
      </trkpt>
      <trkpt lat="47.09369" lon="-1.25315">
        <ele>32.34</ele>
        <time>2014-04-16T09:13:52Z</time>
      </trkpt>
      <trkpt lat="47.09366" lon="-1.2533">
        <ele>31.86</ele>
        <time>2014-04-16T09:13:59Z</time>
      </trkpt>
      <trkpt lat="47.09364" lon="-1.25343">
        <ele>31.86</ele>
        <time>2014-04-16T09:14:06Z</time>
      </trkpt>
      <trkpt lat="47.0936" lon="-1.25356">
        <ele>31.86</ele>
        <time>2014-04-16T09:14:13Z</time>
      </trkpt>
      <trkpt lat="47.09357" lon="-1.2537">
        <ele>31.38</ele>
        <time>2014-04-16T09:14:20Z</time>
      </trkpt>
      <trkpt lat="47.09353" lon="-1.25383">
        <ele>31.38</ele>
        <time>2014-04-16T09:14:27Z</time>
      </trkpt>
      <trkpt lat="47.09349" lon="-1.25396">
        <ele>31.38</ele>
        <time>2014-04-16T09:14:34Z</time>
      </trkpt>
      <trkpt lat="47.09346" lon="-1.2541">
        <ele>30.9</ele>
        <time>2014-04-16T09:14:41Z</time>
      </trkpt>
      <trkpt lat="47.09342" lon="-1.25423">
        <ele>30.9</ele>
        <time>2014-04-16T09:14:48Z</time>
      </trkpt>
      <trkpt lat="47.09338" lon="-1.25437">
        <ele>30.42</ele>
        <time>2014-04-16T09:14:55Z</time>
      </trkpt>
      <trkpt lat="47.09335" lon="-1.2545">
        <ele>30.42</ele>
        <time>2014-04-16T09:15:02Z</time>
      </trkpt>
      <trkpt lat="47.09332" lon="-1.25464">
        <ele>30.42</ele>
        <time>2014-04-16T09:15:09Z</time>
      </trkpt>
      <trkpt lat="47.09329" lon="-1.25478">
        <ele>30.42</ele>
        <time>2014-04-16T09:15:16Z</time>
      </trkpt>
      <trkpt lat="47.09326" lon="-1.25491">
        <ele>29.94</ele>
        <time>2014-04-16T09:15:23Z</time>
      </trkpt>
      <trkpt lat="47.09324" lon="-1.25505">
        <ele>29.94</ele>
        <time>2014-04-16T09:15:30Z</time>
      </trkpt>
      <trkpt lat="47.0932" lon="-1.25518">
        <ele>29.46</ele>
        <time>2014-04-16T09:15:37Z</time>
      </trkpt>
      <trkpt lat="47.09314" lon="-1.2553">
        <ele>29.46</ele>
        <time>2014-04-16T09:15:44Z</time>
      </trkpt>
      <trkpt lat="47.09306" lon="-1.25538">
        <ele>28.98</ele>
        <time>2014-04-16T09:15:51Z</time>
      </trkpt>
      <trkpt lat="47.09298" lon="-1.25545">
        <ele>28.5</ele>
        <time>2014-04-16T09:15:58Z</time>
      </trkpt>
      <trkpt lat="47.09289" lon="-1.25553">
        <ele>28.5</ele>
        <time>2014-04-16T09:16:05Z</time>
      </trkpt>
      <trkpt lat="47.09281" lon="-1.25561">
        <ele>28.02</ele>
        <time>2014-04-16T09:16:12Z</time>
      </trkpt>
      <trkpt lat="47.09273" lon="-1.25569">
        <ele>28.02</ele>
        <time>2014-04-16T09:16:19Z</time>
      </trkpt>
      <trkpt lat="47.09265" lon="-1.25577">
        <ele>27.53</ele>
        <time>2014-04-16T09:16:26Z</time>
      </trkpt>
      <trkpt lat="47.09257" lon="-1.25586">
        <ele>27.05</ele>
        <time>2014-04-16T09:16:33Z</time>
      </trkpt>
      <trkpt lat="47.09248" lon="-1.25595">
        <ele>26.57</ele>
        <time>2014-04-16T09:16:40Z</time>
      </trkpt>
      <trkpt lat="47.0924" lon="-1.25603">
        <ele>25.13</ele>
        <time>2014-04-16T09:16:47Z</time>
      </trkpt>
      <trkpt lat="47.09231" lon="-1.2561">
        <ele>24.65</ele>
        <time>2014-04-16T09:16:54Z</time>
      </trkpt>
      <trkpt lat="47.09222" lon="-1.25617">
        <ele>24.17</ele>
        <time>2014-04-16T09:17:01Z</time>
      </trkpt>
      <trkpt lat="47.09213" lon="-1.25625">
        <ele>23.69</ele>
        <time>2014-04-16T09:17:08Z</time>
      </trkpt>
      <trkpt lat="47.09204" lon="-1.25633">
        <ele>23.69</ele>
        <time>2014-04-16T09:17:16Z</time>
      </trkpt>
      <trkpt lat="47.09196" lon="-1.25644">
        <ele>23.21</ele>
        <time>2014-04-16T09:17:24Z</time>
      </trkpt>
      <trkpt lat="47.09189" lon="-1.25654">
        <ele>23.21</ele>
        <time>2014-04-16T09:17:32Z</time>
      </trkpt>
      <trkpt lat="47.09182" lon="-1.25665">
        <ele>23.21</ele>
        <time>2014-04-16T09:17:40Z</time>
      </trkpt>
      <trkpt lat="47.09175" lon="-1.25679">
        <ele>22.73</ele>
        <time>2014-04-16T09:17:49Z</time>
      </trkpt>
      <trkpt lat="47.09167" lon="-1.25691">
        <ele>22.73</ele>
        <time>2014-04-16T09:17:58Z</time>
      </trkpt>
      <trkpt lat="47.09158" lon="-1.25705">
        <ele>22.73</ele>
        <time>2014-04-16T09:18:06Z</time>
      </trkpt>
      <trkpt lat="47.0915" lon="-1.25717">
        <ele>22.73</ele>
        <time>2014-04-16T09:18:14Z</time>
      </trkpt>
      <trkpt lat="47.09142" lon="-1.25729">
        <ele>22.73</ele>
        <time>2014-04-16T09:18:22Z</time>
      </trkpt>
      <trkpt lat="47.09134" lon="-1.25742">
        <ele>22.73</ele>
        <time>2014-04-16T09:18:30Z</time>
      </trkpt>
      <trkpt lat="47.09128" lon="-1.25754">
        <ele>22.73</ele>
        <time>2014-04-16T09:18:37Z</time>
      </trkpt>
      <trkpt lat="47.09122" lon="-1.25767">
        <ele>22.73</ele>
        <time>2014-04-16T09:18:44Z</time>
      </trkpt>
      <trkpt lat="47.09117" lon="-1.25779">
        <ele>22.73</ele>
        <time>2014-04-16T09:18:51Z</time>
      </trkpt>
      <trkpt lat="47.09111" lon="-1.25791">
        <ele>22.73</ele>
        <time>2014-04-16T09:18:58Z</time>
      </trkpt>
      <trkpt lat="47.09105" lon="-1.25804">
        <ele>22.73</ele>
        <time>2014-04-16T09:19:05Z</time>
      </trkpt>
      <trkpt lat="47.09099" lon="-1.25815">
        <ele>22.73</ele>
        <time>2014-04-16T09:19:12Z</time>
      </trkpt>
      <trkpt lat="47.09093" lon="-1.25828">
        <ele>23.69</ele>
        <time>2014-04-16T09:19:20Z</time>
      </trkpt>
      <trkpt lat="47.09087" lon="-1.25841">
        <ele>24.65</ele>
        <time>2014-04-16T09:19:29Z</time>
      </trkpt>
      <trkpt lat="47.09082" lon="-1.25855">
        <ele>25.61</ele>
        <time>2014-04-16T09:19:38Z</time>
      </trkpt>
      <trkpt lat="47.09077" lon="-1.25871">
        <ele>26.57</ele>
        <time>2014-04-16T09:19:46Z</time>
      </trkpt>
      <trkpt lat="47.09073" lon="-1.25886">
        <ele>27.05</ele>
        <time>2014-04-16T09:19:54Z</time>
      </trkpt>
      <trkpt lat="47.09068" lon="-1.25902">
        <ele>27.05</ele>
        <time>2014-04-16T09:20:03Z</time>
      </trkpt>
      <trkpt lat="47.09065" lon="-1.25921">
        <ele>27.53</ele>
        <time>2014-04-16T09:20:13Z</time>
      </trkpt>
      <trkpt lat="47.09063" lon="-1.25937">
        <ele>28.02</ele>
        <time>2014-04-16T09:20:21Z</time>
      </trkpt>
      <trkpt lat="47.09059" lon="-1.2595">
        <ele>28.02</ele>
        <time>2014-04-16T09:20:28Z</time>
      </trkpt>
      <trkpt lat="47.09054" lon="-1.25964">
        <ele>27.53</ele>
        <time>2014-04-16T09:20:36Z</time>
      </trkpt>
      <trkpt lat="47.09049" lon="-1.25978">
        <ele>27.53</ele>
        <time>2014-04-16T09:20:44Z</time>
      </trkpt>
      <trkpt lat="47.09044" lon="-1.25991">
        <ele>28.02</ele>
        <time>2014-04-16T09:20:52Z</time>
      </trkpt>
      <trkpt lat="47.09039" lon="-1.26005">
        <ele>28.5</ele>
        <time>2014-04-16T09:20:59Z</time>
      </trkpt>
      <trkpt lat="47.09034" lon="-1.26019">
        <ele>28.5</ele>
        <time>2014-04-16T09:21:07Z</time>
      </trkpt>
      <trkpt lat="47.09029" lon="-1.26032">
        <ele>28.5</ele>
        <time>2014-04-16T09:21:14Z</time>
      </trkpt>
      <trkpt lat="47.09024" lon="-1.26047">
        <ele>28.5</ele>
        <time>2014-04-16T09:21:22Z</time>
      </trkpt>
      <trkpt lat="47.09018" lon="-1.2606">
        <ele>28.5</ele>
        <time>2014-04-16T09:21:29Z</time>
      </trkpt>
      <trkpt lat="47.09013" lon="-1.26074">
        <ele>28.5</ele>
        <time>2014-04-16T09:21:36Z</time>
      </trkpt>
      <trkpt lat="47.09007" lon="-1.26087">
        <ele>27.05</ele>
        <time>2014-04-16T09:21:44Z</time>
      </trkpt>
      <trkpt lat="47.09001" lon="-1.261">
        <ele>27.05</ele>
        <time>2014-04-16T09:21:52Z</time>
      </trkpt>
      <trkpt lat="47.08995" lon="-1.26116">
        <ele>27.53</ele>
        <time>2014-04-16T09:22:01Z</time>
      </trkpt>
      <trkpt lat="47.08989" lon="-1.26131">
        <ele>27.05</ele>
        <time>2014-04-16T09:22:10Z</time>
      </trkpt>
      <trkpt lat="47.08983" lon="-1.26146">
        <ele>27.05</ele>
        <time>2014-04-16T09:22:19Z</time>
      </trkpt>
      <trkpt lat="47.08978" lon="-1.26162">
        <ele>28.5</ele>
        <time>2014-04-16T09:22:28Z</time>
      </trkpt>
      <trkpt lat="47.08975" lon="-1.26177">
        <ele>28.98</ele>
        <time>2014-04-16T09:22:35Z</time>
      </trkpt>
      <trkpt lat="47.08975" lon="-1.26193">
        <ele>29.46</ele>
        <time>2014-04-16T09:22:43Z</time>
      </trkpt>
      <trkpt lat="47.08973" lon="-1.2621">
        <ele>30.42</ele>
        <time>2014-04-16T09:22:51Z</time>
      </trkpt>
      <trkpt lat="47.08969" lon="-1.26226">
        <ele>31.86</ele>
        <time>2014-04-16T09:23:00Z</time>
      </trkpt>
      <trkpt lat="47.08965" lon="-1.26242">
        <ele>32.82</ele>
        <time>2014-04-16T09:23:09Z</time>
      </trkpt>
      <trkpt lat="47.08962" lon="-1.26257">
        <ele>33.3</ele>
        <time>2014-04-16T09:23:17Z</time>
      </trkpt>
      <trkpt lat="47.08958" lon="-1.26272">
        <ele>33.78</ele>
        <time>2014-04-16T09:23:25Z</time>
      </trkpt>
      <trkpt lat="47.08954" lon="-1.26287">
        <ele>35.23</ele>
        <time>2014-04-16T09:23:33Z</time>
      </trkpt>
      <trkpt lat="47.0895" lon="-1.26301">
        <ele>36.19</ele>
        <time>2014-04-16T09:23:41Z</time>
      </trkpt>
      <trkpt lat="47.08946" lon="-1.26316">
        <ele>36.67</ele>
        <time>2014-04-16T09:23:49Z</time>
      </trkpt>
      <trkpt lat="47.08942" lon="-1.26329">
        <ele>36.67</ele>
        <time>2014-04-16T09:23:56Z</time>
      </trkpt>
      <trkpt lat="47.08938" lon="-1.26343">
        <ele>37.63</ele>
        <time>2014-04-16T09:24:03Z</time>
      </trkpt>
      <trkpt lat="47.08934" lon="-1.26356">
        <ele>37.63</ele>
        <time>2014-04-16T09:24:10Z</time>
      </trkpt>
      <trkpt lat="47.08931" lon="-1.26368">
        <ele>37.63</ele>
        <time>2014-04-16T09:24:17Z</time>
      </trkpt>
      <trkpt lat="47.08926" lon="-1.2638">
        <ele>37.63</ele>
        <time>2014-04-16T09:24:24Z</time>
      </trkpt>
      <trkpt lat="47.08921" lon="-1.26393">
        <ele>36.67</ele>
        <time>2014-04-16T09:24:31Z</time>
      </trkpt>
      <trkpt lat="47.08915" lon="-1.26404">
        <ele>36.67</ele>
        <time>2014-04-16T09:24:38Z</time>
      </trkpt>
      <trkpt lat="47.08909" lon="-1.26415">
        <ele>36.19</ele>
        <time>2014-04-16T09:24:45Z</time>
      </trkpt>
      <trkpt lat="47.08904" lon="-1.26426">
        <ele>36.19</ele>
        <time>2014-04-16T09:24:52Z</time>
      </trkpt>
      <trkpt lat="47.08897" lon="-1.26438">
        <ele>36.19</ele>
        <time>2014-04-16T09:25:00Z</time>
      </trkpt>
      <trkpt lat="47.08891" lon="-1.26448">
        <ele>35.71</ele>
        <time>2014-04-16T09:25:07Z</time>
      </trkpt>
      <trkpt lat="47.08886" lon="-1.26459">
        <ele>35.71</ele>
        <time>2014-04-16T09:25:14Z</time>
      </trkpt>
      <trkpt lat="47.0888" lon="-1.26471">
        <ele>35.71</ele>
        <time>2014-04-16T09:25:21Z</time>
      </trkpt>
      <trkpt lat="47.08875" lon="-1.26484">
        <ele>35.71</ele>
        <time>2014-04-16T09:25:28Z</time>
      </trkpt>
      <trkpt lat="47.0887" lon="-1.26497">
        <ele>35.71</ele>
        <time>2014-04-16T09:25:35Z</time>
      </trkpt>
      <trkpt lat="47.08864" lon="-1.26509">
        <ele>35.71</ele>
        <time>2014-04-16T09:25:42Z</time>
      </trkpt>
      <trkpt lat="47.08857" lon="-1.2652">
        <ele>35.71</ele>
        <time>2014-04-16T09:25:49Z</time>
      </trkpt>
      <trkpt lat="47.0885" lon="-1.26531">
        <ele>35.23</ele>
        <time>2014-04-16T09:25:56Z</time>
      </trkpt>
      <trkpt lat="47.08843" lon="-1.26542">
        <ele>35.23</ele>
        <time>2014-04-16T09:26:03Z</time>
      </trkpt>
      <trkpt lat="47.08835" lon="-1.26551">
        <ele>35.23</ele>
        <time>2014-04-16T09:26:10Z</time>
      </trkpt>
      <trkpt lat="47.08827" lon="-1.2656">
        <ele>35.23</ele>
        <time>2014-04-16T09:26:17Z</time>
      </trkpt>
      <trkpt lat="47.08819" lon="-1.26569">
        <ele>34.74</ele>
        <time>2014-04-16T09:26:24Z</time>
      </trkpt>
      <trkpt lat="47.08812" lon="-1.26577">
        <ele>34.74</ele>
        <time>2014-04-16T09:26:31Z</time>
      </trkpt>
      <trkpt lat="47.08805" lon="-1.26588">
        <ele>34.74</ele>
        <time>2014-04-16T09:26:38Z</time>
      </trkpt>
      <trkpt lat="47.08798" lon="-1.26598">
        <ele>34.74</ele>
        <time>2014-04-16T09:26:45Z</time>
      </trkpt>
      <trkpt lat="47.0879" lon="-1.26608">
        <ele>34.74</ele>
        <time>2014-04-16T09:26:52Z</time>
      </trkpt>
      <trkpt lat="47.08784" lon="-1.26619">
        <ele>34.74</ele>
        <time>2014-04-16T09:26:59Z</time>
      </trkpt>
      <trkpt lat="47.08778" lon="-1.26629">
        <ele>34.74</ele>
        <time>2014-04-16T09:27:06Z</time>
      </trkpt>
      <trkpt lat="47.08771" lon="-1.26641">
        <ele>34.74</ele>
        <time>2014-04-16T09:27:13Z</time>
      </trkpt>
      <trkpt lat="47.08765" lon="-1.26652">
        <ele>34.74</ele>
        <time>2014-04-16T09:27:20Z</time>
      </trkpt>
      <trkpt lat="47.08758" lon="-1.26663">
        <ele>34.74</ele>
        <time>2014-04-16T09:27:27Z</time>
      </trkpt>
      <trkpt lat="47.08752" lon="-1.26675">
        <ele>34.74</ele>
        <time>2014-04-16T09:27:34Z</time>
      </trkpt>
      <trkpt lat="47.08745" lon="-1.26686">
        <ele>34.74</ele>
        <time>2014-04-16T09:27:41Z</time>
      </trkpt>
      <trkpt lat="47.08738" lon="-1.26698">
        <ele>34.74</ele>
        <time>2014-04-16T09:27:48Z</time>
      </trkpt>
      <trkpt lat="47.08732" lon="-1.2671">
        <ele>34.74</ele>
        <time>2014-04-16T09:27:55Z</time>
      </trkpt>
      <trkpt lat="47.08725" lon="-1.26721">
        <ele>34.74</ele>
        <time>2014-04-16T09:28:02Z</time>
      </trkpt>
      <trkpt lat="47.08719" lon="-1.26733">
        <ele>34.74</ele>
        <time>2014-04-16T09:28:09Z</time>
      </trkpt>
      <trkpt lat="47.08712" lon="-1.26745">
        <ele>34.74</ele>
        <time>2014-04-16T09:28:16Z</time>
      </trkpt>
      <trkpt lat="47.08706" lon="-1.26756">
        <ele>34.74</ele>
        <time>2014-04-16T09:28:23Z</time>
      </trkpt>
      <trkpt lat="47.08699" lon="-1.26768">
        <ele>34.26</ele>
        <time>2014-04-16T09:28:30Z</time>
      </trkpt>
      <trkpt lat="47.08691" lon="-1.26774">
        <ele>34.74</ele>
        <time>2014-04-16T09:28:40Z</time>
      </trkpt>
      <trkpt lat="47.08683" lon="-1.26781">
        <ele>34.26</ele>
        <time>2014-04-16T09:28:48Z</time>
      </trkpt>
      <trkpt lat="47.08676" lon="-1.26771">
        <ele>34.26</ele>
        <time>2014-04-16T09:28:56Z</time>
      </trkpt>
      <trkpt lat="47.08669" lon="-1.2676">
        <ele>34.26</ele>
        <time>2014-04-16T09:29:04Z</time>
      </trkpt>
      <trkpt lat="47.08659" lon="-1.26755">
        <ele>36.67</ele>
        <time>2014-04-16T09:29:11Z</time>
      </trkpt>
      <trkpt lat="47.08649" lon="-1.26754">
        <ele>36.67</ele>
        <time>2014-04-16T09:29:18Z</time>
      </trkpt>
      <trkpt lat="47.0864" lon="-1.26749">
        <ele>36.19</ele>
        <time>2014-04-16T09:29:25Z</time>
      </trkpt>
      <trkpt lat="47.08634" lon="-1.26738">
        <ele>35.23</ele>
        <time>2014-04-16T09:29:32Z</time>
      </trkpt>
      <trkpt lat="47.08631" lon="-1.26726">
        <ele>34.74</ele>
        <time>2014-04-16T09:29:39Z</time>
      </trkpt>
      <trkpt lat="47.08627" lon="-1.26713">
        <ele>34.74</ele>
        <time>2014-04-16T09:29:46Z</time>
      </trkpt>
      <trkpt lat="47.08625" lon="-1.26699">
        <ele>36.19</ele>
        <time>2014-04-16T09:29:53Z</time>
      </trkpt>
      <trkpt lat="47.08621" lon="-1.26686">
        <ele>36.19</ele>
        <time>2014-04-16T09:30:00Z</time>
      </trkpt>
      <trkpt lat="47.08616" lon="-1.26672">
        <ele>34.74</ele>
        <time>2014-04-16T09:30:08Z</time>
      </trkpt>
      <trkpt lat="47.08612" lon="-1.26659">
        <ele>34.74</ele>
        <time>2014-04-16T09:30:15Z</time>
      </trkpt>
      <trkpt lat="47.08607" lon="-1.26646">
        <ele>35.71</ele>
        <time>2014-04-16T09:30:22Z</time>
      </trkpt>
      <trkpt lat="47.08605" lon="-1.26631">
        <ele>36.19</ele>
        <time>2014-04-16T09:30:29Z</time>
      </trkpt>
      <trkpt lat="47.08604" lon="-1.26618">
        <ele>36.19</ele>
        <time>2014-04-16T09:30:36Z</time>
      </trkpt>
      <trkpt lat="47.08603" lon="-1.26604">
        <ele>36.19</ele>
        <time>2014-04-16T09:30:43Z</time>
      </trkpt>
      <trkpt lat="47.08602" lon="-1.2659">
        <ele>36.19</ele>
        <time>2014-04-16T09:30:50Z</time>
      </trkpt>
      <trkpt lat="47.08602" lon="-1.26577">
        <ele>36.19</ele>
        <time>2014-04-16T09:30:57Z</time>
      </trkpt>
      <trkpt lat="47.08604" lon="-1.26562">
        <ele>36.67</ele>
        <time>2014-04-16T09:31:04Z</time>
      </trkpt>
      <trkpt lat="47.08604" lon="-1.26548">
        <ele>37.15</ele>
        <time>2014-04-16T09:31:11Z</time>
      </trkpt>
      <trkpt lat="47.08596" lon="-1.26538">
        <ele>37.63</ele>
        <time>2014-04-16T09:31:19Z</time>
      </trkpt>
      <trkpt lat="47.08588" lon="-1.26543">
        <ele>37.63</ele>
        <time>2014-04-16T09:31:26Z</time>
      </trkpt>
      <trkpt lat="47.08578" lon="-1.26548">
        <ele>37.63</ele>
        <time>2014-04-16T09:31:34Z</time>
      </trkpt>
      <trkpt lat="47.08572" lon="-1.26554">
        <ele>37.63</ele>
        <time>2014-04-16T09:32:44Z</time>
      </trkpt>
      <trkpt lat="47.08567" lon="-1.26564">
        <ele>37.63</ele>
        <time>2014-04-16T09:33:00Z</time>
      </trkpt>
      <trkpt lat="47.08566" lon="-1.26577">
        <ele>36.19</ele>
        <time>2014-04-16T09:33:09Z</time>
      </trkpt>
      <trkpt lat="47.08558" lon="-1.26586">
        <ele>35.71</ele>
        <time>2014-04-16T09:33:19Z</time>
      </trkpt>
      <trkpt lat="47.08548" lon="-1.26595">
        <ele>35.23</ele>
        <time>2014-04-16T09:33:30Z</time>
      </trkpt>
      <trkpt lat="47.08539" lon="-1.26604">
        <ele>34.74</ele>
        <time>2014-04-16T09:33:39Z</time>
      </trkpt>
      <trkpt lat="47.08528" lon="-1.26612">
        <ele>33.78</ele>
        <time>2014-04-16T09:33:48Z</time>
      </trkpt>
      <trkpt lat="47.08518" lon="-1.26622">
        <ele>33.3</ele>
        <time>2014-04-16T09:33:58Z</time>
      </trkpt>
      <trkpt lat="47.08507" lon="-1.26633">
        <ele>32.82</ele>
        <time>2014-04-16T09:34:07Z</time>
      </trkpt>
      <trkpt lat="47.08497" lon="-1.26642">
        <ele>31.38</ele>
        <time>2014-04-16T09:34:17Z</time>
      </trkpt>
      <trkpt lat="47.08487" lon="-1.26651">
        <ele>29.46</ele>
        <time>2014-04-16T09:34:27Z</time>
      </trkpt>
      <trkpt lat="47.0847" lon="-1.26654">
        <ele>28.02</ele>
        <time>2014-04-16T09:34:42Z</time>
      </trkpt>
      <trkpt lat="47.08457" lon="-1.26644">
        <ele>27.05</ele>
        <time>2014-04-16T09:34:52Z</time>
      </trkpt>
      <trkpt lat="47.08447" lon="-1.26637">
        <ele>26.09</ele>
        <time>2014-04-16T09:35:02Z</time>
      </trkpt>
      <trkpt lat="47.08435" lon="-1.26625">
        <ele>25.13</ele>
        <time>2014-04-16T09:35:12Z</time>
      </trkpt>
      <trkpt lat="47.08426" lon="-1.26616">
        <ele>24.17</ele>
        <time>2014-04-16T09:35:21Z</time>
      </trkpt>
      <trkpt lat="47.08416" lon="-1.26604">
        <ele>22.73</ele>
        <time>2014-04-16T09:35:31Z</time>
      </trkpt>
      <trkpt lat="47.08406" lon="-1.26592">
        <ele>21.77</ele>
        <time>2014-04-16T09:35:39Z</time>
      </trkpt>
      <trkpt lat="47.08397" lon="-1.26584">
        <ele>21.29</ele>
        <time>2014-04-16T09:35:47Z</time>
      </trkpt>
      <trkpt lat="47.08385" lon="-1.26573">
        <ele>19.84</ele>
        <time>2014-04-16T09:35:56Z</time>
      </trkpt>
      <trkpt lat="47.08374" lon="-1.26564">
        <ele>18.4</ele>
        <time>2014-04-16T09:36:05Z</time>
      </trkpt>
      <trkpt lat="47.08364" lon="-1.26556">
        <ele>17.44</ele>
        <time>2014-04-16T09:36:13Z</time>
      </trkpt>
      <trkpt lat="47.08354" lon="-1.26548">
        <ele>16.48</ele>
        <time>2014-04-16T09:36:22Z</time>
      </trkpt>
      <trkpt lat="47.08343" lon="-1.26547">
        <ele>14.56</ele>
        <time>2014-04-16T09:36:31Z</time>
      </trkpt>
      <trkpt lat="47.08333" lon="-1.26559">
        <ele>13.12</ele>
        <time>2014-04-16T09:36:41Z</time>
      </trkpt>
      <trkpt lat="47.08324" lon="-1.26569">
        <ele>13.6</ele>
        <time>2014-04-16T09:36:49Z</time>
      </trkpt>
      <trkpt lat="47.08316" lon="-1.26583">
        <ele>12.63</ele>
        <time>2014-04-16T09:36:57Z</time>
      </trkpt>
      <trkpt lat="47.08305" lon="-1.26595">
        <ele>12.63</ele>
        <time>2014-04-16T09:37:28Z</time>
      </trkpt>
      <trkpt lat="47.08298" lon="-1.26606">
        <ele>12.63</ele>
        <time>2014-04-16T09:37:37Z</time>
      </trkpt>
      <trkpt lat="47.08303" lon="-1.26622">
        <ele>12.63</ele>
        <time>2014-04-16T09:37:46Z</time>
      </trkpt>
      <trkpt lat="47.0831" lon="-1.26635">
        <ele>12.63</ele>
        <time>2014-04-16T09:37:55Z</time>
      </trkpt>
      <trkpt lat="47.08316" lon="-1.26646">
        <ele>12.63</ele>
        <time>2014-04-16T09:38:03Z</time>
      </trkpt>
      <trkpt lat="47.08324" lon="-1.26658">
        <ele>12.15</ele>
        <time>2014-04-16T09:38:11Z</time>
      </trkpt>
      <trkpt lat="47.08333" lon="-1.26671">
        <ele>11.67</ele>
        <time>2014-04-16T09:38:20Z</time>
      </trkpt>
      <trkpt lat="47.0834" lon="-1.26684">
        <ele>11.19</ele>
        <time>2014-04-16T09:38:28Z</time>
      </trkpt>
      <trkpt lat="47.08348" lon="-1.26701">
        <ele>10.71</ele>
        <time>2014-04-16T09:38:39Z</time>
      </trkpt>
      <trkpt lat="47.08357" lon="-1.26719">
        <ele>10.71</ele>
        <time>2014-04-16T09:38:50Z</time>
      </trkpt>
      <trkpt lat="47.08367" lon="-1.26732">
        <ele>10.23</ele>
        <time>2014-04-16T09:38:59Z</time>
      </trkpt>
      <trkpt lat="47.08378" lon="-1.2674">
        <ele>10.23</ele>
        <time>2014-04-16T09:39:08Z</time>
      </trkpt>
      <trkpt lat="47.08388" lon="-1.26751">
        <ele>10.23</ele>
        <time>2014-04-16T09:39:18Z</time>
      </trkpt>
      <trkpt lat="47.08399" lon="-1.26763">
        <ele>10.23</ele>
        <time>2014-04-16T09:39:27Z</time>
      </trkpt>
      <trkpt lat="47.08407" lon="-1.26773">
        <ele>9.75</ele>
        <time>2014-04-16T09:39:35Z</time>
      </trkpt>
      <trkpt lat="47.08416" lon="-1.26788">
        <ele>9.75</ele>
        <time>2014-04-16T09:39:44Z</time>
      </trkpt>
      <trkpt lat="47.08423" lon="-1.26802">
        <ele>9.27</ele>
        <time>2014-04-16T09:39:52Z</time>
      </trkpt>
      <trkpt lat="47.08428" lon="-1.26816">
        <ele>9.27</ele>
        <time>2014-04-16T09:40:00Z</time>
      </trkpt>
      <trkpt lat="47.08434" lon="-1.26829">
        <ele>9.27</ele>
        <time>2014-04-16T09:40:08Z</time>
      </trkpt>
      <trkpt lat="47.08442" lon="-1.26841">
        <ele>8.79</ele>
        <time>2014-04-16T09:40:16Z</time>
      </trkpt>
      <trkpt lat="47.08445" lon="-1.26855">
        <ele>8.79</ele>
        <time>2014-04-16T09:40:24Z</time>
      </trkpt>
      <trkpt lat="47.08449" lon="-1.26872">
        <ele>8.79</ele>
        <time>2014-04-16T09:40:33Z</time>
      </trkpt>
      <trkpt lat="47.08453" lon="-1.26888">
        <ele>8.79</ele>
        <time>2014-04-16T09:40:40Z</time>
      </trkpt>
      <trkpt lat="47.08455" lon="-1.26903">
        <ele>8.79</ele>
        <time>2014-04-16T09:40:48Z</time>
      </trkpt>
      <trkpt lat="47.08454" lon="-1.2692">
        <ele>8.79</ele>
        <time>2014-04-16T09:40:59Z</time>
      </trkpt>
      <trkpt lat="47.08453" lon="-1.26934">
        <ele>8.31</ele>
        <time>2014-04-16T09:41:09Z</time>
      </trkpt>
      <trkpt lat="47.08444" lon="-1.26936">
        <ele>8.31</ele>
        <time>2014-04-16T09:41:19Z</time>
      </trkpt>
      <trkpt lat="47.08433" lon="-1.2694">
        <ele>8.31</ele>
        <time>2014-04-16T09:41:28Z</time>
      </trkpt>
      <trkpt lat="47.08425" lon="-1.26951">
        <ele>8.31</ele>
        <time>2014-04-16T09:41:37Z</time>
      </trkpt>
      <trkpt lat="47.08416" lon="-1.26964">
        <ele>9.27</ele>
        <time>2014-04-16T09:41:46Z</time>
      </trkpt>
      <trkpt lat="47.08406" lon="-1.26975">
        <ele>9.75</ele>
        <time>2014-04-16T09:41:55Z</time>
      </trkpt>
      <trkpt lat="47.08397" lon="-1.26986">
        <ele>9.75</ele>
        <time>2014-04-16T09:42:05Z</time>
      </trkpt>
      <trkpt lat="47.08387" lon="-1.27">
        <ele>10.71</ele>
        <time>2014-04-16T09:42:35Z</time>
      </trkpt>
      <trkpt lat="47.08385" lon="-1.27019">
        <ele>10.71</ele>
        <time>2014-04-16T09:42:45Z</time>
      </trkpt>
      <trkpt lat="47.08384" lon="-1.27036">
        <ele>9.27</ele>
        <time>2014-04-16T09:42:54Z</time>
      </trkpt>
      <trkpt lat="47.0838" lon="-1.27052">
        <ele>9.27</ele>
        <time>2014-04-16T09:43:04Z</time>
      </trkpt>
      <trkpt lat="47.08372" lon="-1.27062">
        <ele>8.79</ele>
        <time>2014-04-16T09:43:14Z</time>
      </trkpt>
      <trkpt lat="47.08362" lon="-1.2707">
        <ele>8.31</ele>
        <time>2014-04-16T09:43:25Z</time>
      </trkpt>
      <trkpt lat="47.08349" lon="-1.27079">
        <ele>7.83</ele>
        <time>2014-04-16T09:43:36Z</time>
      </trkpt>
      <trkpt lat="47.08339" lon="-1.27091">
        <ele>7.83</ele>
        <time>2014-04-16T09:43:47Z</time>
      </trkpt>
      <trkpt lat="47.0833" lon="-1.27107">
        <ele>7.83</ele>
        <time>2014-04-16T09:43:57Z</time>
      </trkpt>
      <trkpt lat="47.08323" lon="-1.27124">
        <ele>7.83</ele>
        <time>2014-04-16T09:44:07Z</time>
      </trkpt>
      <trkpt lat="47.08313" lon="-1.27139">
        <ele>7.83</ele>
        <time>2014-04-16T09:44:18Z</time>
      </trkpt>
      <trkpt lat="47.08305" lon="-1.27156">
        <ele>7.83</ele>
        <time>2014-04-16T09:44:28Z</time>
      </trkpt>
      <trkpt lat="47.08303" lon="-1.27174">
        <ele>7.35</ele>
        <time>2014-04-16T09:44:37Z</time>
      </trkpt>
      <trkpt lat="47.08299" lon="-1.2719">
        <ele>6.87</ele>
        <time>2014-04-16T09:44:45Z</time>
      </trkpt>
      <trkpt lat="47.08295" lon="-1.27205">
        <ele>6.87</ele>
        <time>2014-04-16T09:44:53Z</time>
      </trkpt>
      <trkpt lat="47.08291" lon="-1.27222">
        <ele>6.87</ele>
        <time>2014-04-16T09:45:01Z</time>
      </trkpt>
      <trkpt lat="47.08288" lon="-1.27238">
        <ele>6.39</ele>
        <time>2014-04-16T09:45:10Z</time>
      </trkpt>
      <trkpt lat="47.08283" lon="-1.27255">
        <ele>6.39</ele>
        <time>2014-04-16T09:45:21Z</time>
      </trkpt>
      <trkpt lat="47.08284" lon="-1.27279">
        <ele>5.91</ele>
        <time>2014-04-16T09:45:47Z</time>
      </trkpt>
      <trkpt lat="47.08284" lon="-1.27295">
        <ele>7.35</ele>
        <time>2014-04-16T09:46:00Z</time>
      </trkpt>
      <trkpt lat="47.08284" lon="-1.2731">
        <ele>7.35</ele>
        <time>2014-04-16T09:46:08Z</time>
      </trkpt>
      <trkpt lat="47.08285" lon="-1.27325">
        <ele>7.35</ele>
        <time>2014-04-16T09:46:16Z</time>
      </trkpt>
      <trkpt lat="47.08285" lon="-1.27341">
        <ele>7.35</ele>
        <time>2014-04-16T09:46:24Z</time>
      </trkpt>
      <trkpt lat="47.08287" lon="-1.27356">
        <ele>7.35</ele>
        <time>2014-04-16T09:46:31Z</time>
      </trkpt>
      <trkpt lat="47.08291" lon="-1.2737">
        <ele>7.35</ele>
        <time>2014-04-16T09:46:38Z</time>
      </trkpt>
      <trkpt lat="47.08297" lon="-1.27385">
        <ele>5.91</ele>
        <time>2014-04-16T09:46:46Z</time>
      </trkpt>
      <trkpt lat="47.08301" lon="-1.274">
        <ele>5.91</ele>
        <time>2014-04-16T09:46:55Z</time>
      </trkpt>
      <trkpt lat="47.08299" lon="-1.27414">
        <ele>5.42</ele>
        <time>2014-04-16T09:47:03Z</time>
      </trkpt>
      <trkpt lat="47.08293" lon="-1.27427">
        <ele>5.42</ele>
        <time>2014-04-16T09:47:11Z</time>
      </trkpt>
      <trkpt lat="47.0829" lon="-1.27442">
        <ele>5.42</ele>
        <time>2014-04-16T09:47:20Z</time>
      </trkpt>
      <trkpt lat="47.08286" lon="-1.27461">
        <ele>5.42</ele>
        <time>2014-04-16T09:47:30Z</time>
      </trkpt>
      <trkpt lat="47.08279" lon="-1.27475">
        <ele>5.42</ele>
        <time>2014-04-16T09:47:38Z</time>
      </trkpt>
      <trkpt lat="47.08275" lon="-1.27491">
        <ele>5.42</ele>
        <time>2014-04-16T09:47:46Z</time>
      </trkpt>
      <trkpt lat="47.08272" lon="-1.27507">
        <ele>5.42</ele>
        <time>2014-04-16T09:47:55Z</time>
      </trkpt>
      <trkpt lat="47.08268" lon="-1.27524">
        <ele>4.94</ele>
        <time>2014-04-16T09:48:05Z</time>
      </trkpt>
      <trkpt lat="47.08266" lon="-1.27539">
        <ele>4.94</ele>
        <time>2014-04-16T09:48:13Z</time>
      </trkpt>
      <trkpt lat="47.08269" lon="-1.27555">
        <ele>4.94</ele>
        <time>2014-04-16T09:48:23Z</time>
      </trkpt>
      <trkpt lat="47.08275" lon="-1.27572">
        <ele>4.94</ele>
        <time>2014-04-16T09:48:33Z</time>
      </trkpt>
      <trkpt lat="47.08285" lon="-1.27595">
        <ele>4.46</ele>
        <time>2014-04-16T09:48:49Z</time>
      </trkpt>
      <trkpt lat="47.08296" lon="-1.27607">
        <ele>4.46</ele>
        <time>2014-04-16T09:48:58Z</time>
      </trkpt>
      <trkpt lat="47.08305" lon="-1.27617">
        <ele>4.46</ele>
        <time>2014-04-16T09:49:07Z</time>
      </trkpt>
      <trkpt lat="47.08316" lon="-1.27622">
        <ele>4.46</ele>
        <time>2014-04-16T09:49:15Z</time>
      </trkpt>
      <trkpt lat="47.08327" lon="-1.27627">
        <ele>4.46</ele>
        <time>2014-04-16T09:49:24Z</time>
      </trkpt>
      <trkpt lat="47.08338" lon="-1.27632">
        <ele>4.46</ele>
        <time>2014-04-16T09:49:32Z</time>
      </trkpt>
      <trkpt lat="47.0835" lon="-1.27639">
        <ele>4.46</ele>
        <time>2014-04-16T09:49:40Z</time>
      </trkpt>
      <trkpt lat="47.0836" lon="-1.27647">
        <ele>4.46</ele>
        <time>2014-04-16T09:49:48Z</time>
      </trkpt>
      <trkpt lat="47.0837" lon="-1.27657">
        <ele>4.46</ele>
        <time>2014-04-16T09:49:57Z</time>
      </trkpt>
      <trkpt lat="47.08381" lon="-1.27666">
        <ele>4.46</ele>
        <time>2014-04-16T09:50:06Z</time>
      </trkpt>
      <trkpt lat="47.08392" lon="-1.27676">
        <ele>4.46</ele>
        <time>2014-04-16T09:50:15Z</time>
      </trkpt>
      <trkpt lat="47.08402" lon="-1.27683">
        <ele>4.46</ele>
        <time>2014-04-16T09:50:22Z</time>
      </trkpt>
      <trkpt lat="47.08412" lon="-1.27689">
        <ele>4.46</ele>
        <time>2014-04-16T09:50:29Z</time>
      </trkpt>
      <trkpt lat="47.08422" lon="-1.27697">
        <ele>4.46</ele>
        <time>2014-04-16T09:50:37Z</time>
      </trkpt>
      <trkpt lat="47.0843" lon="-1.27707">
        <ele>4.46</ele>
        <time>2014-04-16T09:50:45Z</time>
      </trkpt>
      <trkpt lat="47.08438" lon="-1.27718">
        <ele>4.46</ele>
        <time>2014-04-16T09:50:53Z</time>
      </trkpt>
      <trkpt lat="47.08445" lon="-1.27731">
        <ele>4.46</ele>
        <time>2014-04-16T09:51:03Z</time>
      </trkpt>
      <trkpt lat="47.08452" lon="-1.27745">
        <ele>5.91</ele>
        <time>2014-04-16T09:51:14Z</time>
      </trkpt>
      <trkpt lat="47.08463" lon="-1.27755">
        <ele>8.31</ele>
        <time>2014-04-16T09:51:31Z</time>
      </trkpt>
      <trkpt lat="47.08473" lon="-1.27768">
        <ele>6.39</ele>
        <time>2014-04-16T09:51:43Z</time>
      </trkpt>
      <trkpt lat="47.08486" lon="-1.27786">
        <ele>8.31</ele>
        <time>2014-04-16T09:52:03Z</time>
      </trkpt>
      <trkpt lat="47.085" lon="-1.27798">
        <ele>6.39</ele>
        <time>2014-04-16T09:52:24Z</time>
      </trkpt>
      <trkpt lat="47.08513" lon="-1.27802">
        <ele>4.46</ele>
        <time>2014-04-16T09:52:37Z</time>
      </trkpt>
      <trkpt lat="47.08522" lon="-1.27811">
        <ele>3.98</ele>
        <time>2014-04-16T09:52:46Z</time>
      </trkpt>
      <trkpt lat="47.08532" lon="-1.27826">
        <ele>3.98</ele>
        <time>2014-04-16T09:52:57Z</time>
      </trkpt>
      <trkpt lat="47.08532" lon="-1.27842">
        <ele>6.87</ele>
        <time>2014-04-16T09:53:08Z</time>
      </trkpt>
      <trkpt lat="47.08531" lon="-1.27858">
        <ele>9.75</ele>
        <time>2014-04-16T09:53:21Z</time>
      </trkpt>
      <trkpt lat="47.08536" lon="-1.27877">
        <ele>12.15</ele>
        <time>2014-04-16T09:53:36Z</time>
      </trkpt>
      <trkpt lat="47.08536" lon="-1.27897">
        <ele>13.6</ele>
        <time>2014-04-16T09:53:46Z</time>
      </trkpt>
      <trkpt lat="47.08534" lon="-1.27913">
        <ele>15.04</ele>
        <time>2014-04-16T09:53:55Z</time>
      </trkpt>
      <trkpt lat="47.0853" lon="-1.27926">
        <ele>15.04</ele>
        <time>2014-04-16T09:54:04Z</time>
      </trkpt>
      <trkpt lat="47.08534" lon="-1.27936">
        <ele>13.12</ele>
        <time>2014-04-16T09:54:14Z</time>
      </trkpt>
      <trkpt lat="47.08544" lon="-1.27939">
        <ele>12.15</ele>
        <time>2014-04-16T09:54:22Z</time>
      </trkpt>
      <trkpt lat="47.08556" lon="-1.27942">
        <ele>11.19</ele>
        <time>2014-04-16T09:54:31Z</time>
      </trkpt>
      <trkpt lat="47.08566" lon="-1.27944">
        <ele>10.23</ele>
        <time>2014-04-16T09:54:40Z</time>
      </trkpt>
      <trkpt lat="47.08572" lon="-1.27949">
        <ele>9.75</ele>
        <time>2014-04-16T09:55:34Z</time>
      </trkpt>
      <trkpt lat="47.08566" lon="-1.27955">
        <ele>9.75</ele>
        <time>2014-04-16T09:56:56Z</time>
      </trkpt>
      <trkpt lat="47.08556" lon="-1.27957">
        <ele>11.19</ele>
        <time>2014-04-16T09:57:05Z</time>
      </trkpt>
      <trkpt lat="47.08546" lon="-1.27955">
        <ele>11.67</ele>
        <time>2014-04-16T09:57:13Z</time>
      </trkpt>
      <trkpt lat="47.08537" lon="-1.27955">
        <ele>12.15</ele>
        <time>2014-04-16T09:57:20Z</time>
      </trkpt>
      <trkpt lat="47.08528" lon="-1.2796">
        <ele>12.15</ele>
        <time>2014-04-16T09:57:28Z</time>
      </trkpt>
      <trkpt lat="47.0852" lon="-1.27968">
        <ele>13.6</ele>
        <time>2014-04-16T09:57:37Z</time>
      </trkpt>
      <trkpt lat="47.08518" lon="-1.27984">
        <ele>17.44</ele>
        <time>2014-04-16T09:57:52Z</time>
      </trkpt>
      <trkpt lat="47.08512" lon="-1.28">
        <ele>18.4</ele>
        <time>2014-04-16T09:58:00Z</time>
      </trkpt>
      <trkpt lat="47.08507" lon="-1.28011">
        <ele>19.84</ele>
        <time>2014-04-16T09:58:07Z</time>
      </trkpt>
      <trkpt lat="47.085" lon="-1.28019">
        <ele>20.81</ele>
        <time>2014-04-16T09:58:15Z</time>
      </trkpt>
      <trkpt lat="47.08492" lon="-1.28028">
        <ele>20.81</ele>
        <time>2014-04-16T09:58:23Z</time>
      </trkpt>
      <trkpt lat="47.08489" lon="-1.28041">
        <ele>21.29</ele>
        <time>2014-04-16T09:58:31Z</time>
      </trkpt>
      <trkpt lat="47.08497" lon="-1.28053">
        <ele>22.73</ele>
        <time>2014-04-16T09:58:39Z</time>
      </trkpt>
      <trkpt lat="47.08503" lon="-1.28063">
        <ele>23.21</ele>
        <time>2014-04-16T09:58:46Z</time>
      </trkpt>
      <trkpt lat="47.08509" lon="-1.28077">
        <ele>24.17</ele>
        <time>2014-04-16T09:58:54Z</time>
      </trkpt>
      <trkpt lat="47.08512" lon="-1.28092">
        <ele>25.13</ele>
        <time>2014-04-16T09:59:02Z</time>
      </trkpt>
      <trkpt lat="47.08512" lon="-1.28108">
        <ele>26.09</ele>
        <time>2014-04-16T09:59:10Z</time>
      </trkpt>
      <trkpt lat="47.08511" lon="-1.2812">
        <ele>27.05</ele>
        <time>2014-04-16T09:59:17Z</time>
      </trkpt>
      <trkpt lat="47.08508" lon="-1.28133">
        <ele>28.02</ele>
        <time>2014-04-16T09:59:24Z</time>
      </trkpt>
      <trkpt lat="47.08506" lon="-1.28145">
        <ele>28.98</ele>
        <time>2014-04-16T09:59:31Z</time>
      </trkpt>
      <trkpt lat="47.08503" lon="-1.28159">
        <ele>30.42</ele>
        <time>2014-04-16T09:59:39Z</time>
      </trkpt>
      <trkpt lat="47.085" lon="-1.28172">
        <ele>31.86</ele>
        <time>2014-04-16T09:59:46Z</time>
      </trkpt>
      <trkpt lat="47.08495" lon="-1.28185">
        <ele>32.34</ele>
        <time>2014-04-16T09:59:54Z</time>
      </trkpt>
      <trkpt lat="47.08496" lon="-1.28197">
        <ele>32.34</ele>
        <time>2014-04-16T10:00:03Z</time>
      </trkpt>
      <trkpt lat="47.08502" lon="-1.28209">
        <ele>32.34</ele>
        <time>2014-04-16T10:00:10Z</time>
      </trkpt>
      <trkpt lat="47.08511" lon="-1.28215">
        <ele>32.34</ele>
        <time>2014-04-16T10:00:19Z</time>
      </trkpt>
      <trkpt lat="47.08523" lon="-1.28222">
        <ele>32.34</ele>
        <time>2014-04-16T10:00:27Z</time>
      </trkpt>
      <trkpt lat="47.08532" lon="-1.28227">
        <ele>32.34</ele>
        <time>2014-04-16T10:00:34Z</time>
      </trkpt>
      <trkpt lat="47.08542" lon="-1.28233">
        <ele>32.34</ele>
        <time>2014-04-16T10:00:42Z</time>
      </trkpt>
      <trkpt lat="47.08552" lon="-1.28235">
        <ele>31.38</ele>
        <time>2014-04-16T10:00:49Z</time>
      </trkpt>
      <trkpt lat="47.08561" lon="-1.28235">
        <ele>31.38</ele>
        <time>2014-04-16T10:00:57Z</time>
      </trkpt>
      <trkpt lat="47.08571" lon="-1.28233">
        <ele>31.38</ele>
        <time>2014-04-16T10:01:04Z</time>
      </trkpt>
      <trkpt lat="47.08581" lon="-1.28231">
        <ele>30.9</ele>
        <time>2014-04-16T10:01:11Z</time>
      </trkpt>
      <trkpt lat="47.08591" lon="-1.2823">
        <ele>30.9</ele>
        <time>2014-04-16T10:01:20Z</time>
      </trkpt>
      <trkpt lat="47.08601" lon="-1.2823">
        <ele>30.9</ele>
        <time>2014-04-16T10:01:27Z</time>
      </trkpt>
      <trkpt lat="47.0861" lon="-1.2823">
        <ele>30.42</ele>
        <time>2014-04-16T10:01:36Z</time>
      </trkpt>
      <trkpt lat="47.08621" lon="-1.28229">
        <ele>29.94</ele>
        <time>2014-04-16T10:01:44Z</time>
      </trkpt>
      <trkpt lat="47.08632" lon="-1.28228">
        <ele>29.94</ele>
        <time>2014-04-16T10:01:53Z</time>
      </trkpt>
      <trkpt lat="47.08644" lon="-1.28229">
        <ele>29.46</ele>
        <time>2014-04-16T10:02:03Z</time>
      </trkpt>
      <trkpt lat="47.08654" lon="-1.28227">
        <ele>28.98</ele>
        <time>2014-04-16T10:02:11Z</time>
      </trkpt>
      <trkpt lat="47.08668" lon="-1.28227">
        <ele>28.98</ele>
        <time>2014-04-16T10:02:22Z</time>
      </trkpt>
      <trkpt lat="47.08681" lon="-1.28223">
        <ele>28.98</ele>
        <time>2014-04-16T10:02:29Z</time>
      </trkpt>
      <trkpt lat="47.08691" lon="-1.28224">
        <ele>28.98</ele>
        <time>2014-04-16T10:02:37Z</time>
      </trkpt>
      <trkpt lat="47.08702" lon="-1.28228">
        <ele>30.42</ele>
        <time>2014-04-16T10:02:45Z</time>
      </trkpt>
      <trkpt lat="47.08711" lon="-1.28229">
        <ele>30.42</ele>
        <time>2014-04-16T10:02:54Z</time>
      </trkpt>
      <trkpt lat="47.08713" lon="-1.28191">
        <ele>28.5</ele>
        <time>2014-04-16T10:03:42Z</time>
      </trkpt>
      <trkpt lat="47.08703" lon="-1.28181">
        <ele>28.02</ele>
        <time>2014-04-16T10:03:55Z</time>
      </trkpt>
      <trkpt lat="47.08694" lon="-1.28178">
        <ele>28.5</ele>
        <time>2014-04-16T10:04:03Z</time>
      </trkpt>
      <trkpt lat="47.08691" lon="-1.28164">
        <ele>27.53</ele>
        <time>2014-04-16T10:04:12Z</time>
      </trkpt>
      <trkpt lat="47.0869" lon="-1.28149">
        <ele>27.05</ele>
        <time>2014-04-16T10:04:21Z</time>
      </trkpt>
      <trkpt lat="47.08689" lon="-1.28134">
        <ele>26.57</ele>
        <time>2014-04-16T10:04:31Z</time>
      </trkpt>
      <trkpt lat="47.08694" lon="-1.28113">
        <ele>18.88</ele>
        <time>2014-04-16T10:04:57Z</time>
      </trkpt>
      <trkpt lat="47.08697" lon="-1.28095">
        <ele>14.56</ele>
        <time>2014-04-16T10:05:12Z</time>
      </trkpt>
      <trkpt lat="47.08697" lon="-1.28077">
        <ele>11.67</ele>
        <time>2014-04-16T10:05:25Z</time>
      </trkpt>
      <trkpt lat="47.08691" lon="-1.28063">
        <ele>10.71</ele>
        <time>2014-04-16T10:05:35Z</time>
      </trkpt>
      <trkpt lat="47.08683" lon="-1.28049">
        <ele>10.23</ele>
        <time>2014-04-16T10:05:43Z</time>
      </trkpt>
      <trkpt lat="47.0868" lon="-1.28034">
        <ele>8.31</ele>
        <time>2014-04-16T10:05:51Z</time>
      </trkpt>
      <trkpt lat="47.08682" lon="-1.28019">
        <ele>7.35</ele>
        <time>2014-04-16T10:05:59Z</time>
      </trkpt>
      <trkpt lat="47.08689" lon="-1.28005">
        <ele>7.35</ele>
        <time>2014-04-16T10:06:08Z</time>
      </trkpt>
      <trkpt lat="47.08693" lon="-1.2799">
        <ele>9.27</ele>
        <time>2014-04-16T10:06:16Z</time>
      </trkpt>
      <trkpt lat="47.08697" lon="-1.27978">
        <ele>7.83</ele>
        <time>2014-04-16T10:06:31Z</time>
      </trkpt>
      <trkpt lat="47.08703" lon="-1.27966">
        <ele>9.27</ele>
        <time>2014-04-16T10:06:41Z</time>
      </trkpt>
      <trkpt lat="47.08707" lon="-1.27954">
        <ele>9.27</ele>
        <time>2014-04-16T10:06:51Z</time>
      </trkpt>
      <trkpt lat="47.08709" lon="-1.2794">
        <ele>9.27</ele>
        <time>2014-04-16T10:07:01Z</time>
      </trkpt>
      <trkpt lat="47.08714" lon="-1.27927">
        <ele>8.31</ele>
        <time>2014-04-16T10:07:10Z</time>
      </trkpt>
      <trkpt lat="47.08719" lon="-1.27911">
        <ele>7.83</ele>
        <time>2014-04-16T10:07:20Z</time>
      </trkpt>
      <trkpt lat="47.08722" lon="-1.27896">
        <ele>7.35</ele>
        <time>2014-04-16T10:07:30Z</time>
      </trkpt>
      <trkpt lat="47.08722" lon="-1.27882">
        <ele>7.35</ele>
        <time>2014-04-16T10:07:41Z</time>
      </trkpt>
      <trkpt lat="47.08727" lon="-1.2787">
        <ele>7.35</ele>
        <time>2014-04-16T10:07:50Z</time>
      </trkpt>
      <trkpt lat="47.08734" lon="-1.27861">
        <ele>8.79</ele>
        <time>2014-04-16T10:07:58Z</time>
      </trkpt>
      <trkpt lat="47.08742" lon="-1.2785">
        <ele>8.79</ele>
        <time>2014-04-16T10:08:07Z</time>
      </trkpt>
      <trkpt lat="47.08749" lon="-1.27842">
        <ele>8.79</ele>
        <time>2014-04-16T10:08:15Z</time>
      </trkpt>
      <trkpt lat="47.08757" lon="-1.27835">
        <ele>9.75</ele>
        <time>2014-04-16T10:08:23Z</time>
      </trkpt>
      <trkpt lat="47.08762" lon="-1.27823">
        <ele>10.23</ele>
        <time>2014-04-16T10:08:33Z</time>
      </trkpt>
      <trkpt lat="47.08753" lon="-1.27809">
        <ele>9.27</ele>
        <time>2014-04-16T10:08:41Z</time>
      </trkpt>
      <trkpt lat="47.08745" lon="-1.27798">
        <ele>8.79</ele>
        <time>2014-04-16T10:08:50Z</time>
      </trkpt>
      <trkpt lat="47.08736" lon="-1.27791">
        <ele>8.31</ele>
        <time>2014-04-16T10:08:58Z</time>
      </trkpt>
      <trkpt lat="47.08728" lon="-1.27784">
        <ele>7.83</ele>
        <time>2014-04-16T10:09:06Z</time>
      </trkpt>
      <trkpt lat="47.0872" lon="-1.27774">
        <ele>7.35</ele>
        <time>2014-04-16T10:09:14Z</time>
      </trkpt>
      <trkpt lat="47.08724" lon="-1.27762">
        <ele>7.35</ele>
        <time>2014-04-16T10:09:22Z</time>
      </trkpt>
      <trkpt lat="47.08728" lon="-1.27748">
        <ele>7.35</ele>
        <time>2014-04-16T10:09:30Z</time>
      </trkpt>
      <trkpt lat="47.0873" lon="-1.27731">
        <ele>6.87</ele>
        <time>2014-04-16T10:09:40Z</time>
      </trkpt>
      <trkpt lat="47.08735" lon="-1.27715">
        <ele>7.83</ele>
        <time>2014-04-16T10:09:49Z</time>
      </trkpt>
      <trkpt lat="47.0874" lon="-1.27699">
        <ele>6.39</ele>
        <time>2014-04-16T10:09:59Z</time>
      </trkpt>
      <trkpt lat="47.08749" lon="-1.27689">
        <ele>6.39</ele>
        <time>2014-04-16T10:10:08Z</time>
      </trkpt>
      <trkpt lat="47.0876" lon="-1.27689">
        <ele>9.27</ele>
        <time>2014-04-16T10:10:18Z</time>
      </trkpt>
      <trkpt lat="47.08762" lon="-1.27673">
        <ele>7.83</ele>
        <time>2014-04-16T10:10:26Z</time>
      </trkpt>
      <trkpt lat="47.08767" lon="-1.27659">
        <ele>7.83</ele>
        <time>2014-04-16T10:10:34Z</time>
      </trkpt>
      <trkpt lat="47.08772" lon="-1.27646">
        <ele>7.83</ele>
        <time>2014-04-16T10:10:42Z</time>
      </trkpt>
      <trkpt lat="47.08777" lon="-1.27632">
        <ele>7.83</ele>
        <time>2014-04-16T10:10:50Z</time>
      </trkpt>
      <trkpt lat="47.08784" lon="-1.2762">
        <ele>7.83</ele>
        <time>2014-04-16T10:10:58Z</time>
      </trkpt>
      <trkpt lat="47.08792" lon="-1.2761">
        <ele>7.83</ele>
        <time>2014-04-16T10:11:06Z</time>
      </trkpt>
      <trkpt lat="47.08799" lon="-1.27599">
        <ele>7.83</ele>
        <time>2014-04-16T10:11:14Z</time>
      </trkpt>
      <trkpt lat="47.08807" lon="-1.27588">
        <ele>7.83</ele>
        <time>2014-04-16T10:11:23Z</time>
      </trkpt>
      <trkpt lat="47.08816" lon="-1.27578">
        <ele>10.23</ele>
        <time>2014-04-16T10:11:34Z</time>
      </trkpt>
      <trkpt lat="47.08858" lon="-1.27586">
        <ele>21.77</ele>
        <time>2014-04-16T10:12:31Z</time>
      </trkpt>
      <trkpt lat="47.08874" lon="-1.27582">
        <ele>25.13</ele>
        <time>2014-04-16T10:12:52Z</time>
      </trkpt>
      <trkpt lat="47.08881" lon="-1.27573">
        <ele>25.13</ele>
        <time>2014-04-16T10:13:35Z</time>
      </trkpt>
    </trkseg>
  </trk>
</gpx>